<?xml version="1.0" encoding="UTF-8" standalone="no" ?>
<gpx xmlns="http://www.topografix.com/GPX/1/1" xmlns:xsi="http://www.w3.org/2001/XMLSchema-instance" xsi:schemaLocation="http://www.topografix.com/GPX/1/1 http://www.topografix.com/GPX/1/1/gpx.xsd" version="1.1" creator="VisuGPX - https://www.visugpx.com">
  <metadata>
    <name>marche Rimbach</name>
    <desc><![CDATA[marche populaire Rimbach]]></desc>
  </metadata>
  <trk>
    <name><![CDATA[marche Rimbach_1]]></name>
    <trkseg>
      <trkpt lat="47.82545" lon="6.95033">
        <ele>565</ele>
        <time>2015-07-26T08:33:59Z</time>
      </trkpt>
      <trkpt lat="47.82545" lon="6.95033">
        <ele>332.8</ele>
        <time>2015-07-26T08:34:00Z</time>
      </trkpt>
      <trkpt lat="47.8255" lon="6.95032">
        <ele>559.4</ele>
        <time>2015-07-26T08:34:02Z</time>
      </trkpt>
      <trkpt lat="47.82544" lon="6.95032">
        <ele>571</ele>
        <time>2015-07-26T08:34:52Z</time>
      </trkpt>
      <trkpt lat="47.82553" lon="6.95038">
        <ele>568</ele>
        <time>2015-07-26T08:35:19Z</time>
      </trkpt>
      <trkpt lat="47.82558" lon="6.95041">
        <ele>567</ele>
        <time>2015-07-26T08:35:25Z</time>
      </trkpt>
      <trkpt lat="47.82558" lon="6.95048">
        <ele>567</ele>
        <time>2015-07-26T08:35:32Z</time>
      </trkpt>
      <trkpt lat="47.82561" lon="6.95053">
        <ele>567</ele>
        <time>2015-07-26T08:35:37Z</time>
      </trkpt>
      <trkpt lat="47.82573" lon="6.95064">
        <ele>566</ele>
        <time>2015-07-26T08:35:49Z</time>
      </trkpt>
      <trkpt lat="47.82585" lon="6.95076">
        <ele>564.3</ele>
        <time>2015-07-26T08:36:03Z</time>
      </trkpt>
      <trkpt lat="47.82589" lon="6.95081">
        <ele>560.4</ele>
        <time>2015-07-26T08:36:07Z</time>
      </trkpt>
      <trkpt lat="47.82592" lon="6.95087">
        <ele>560.1</ele>
        <time>2015-07-26T08:36:11Z</time>
      </trkpt>
      <trkpt lat="47.82603" lon="6.95099">
        <ele>560</ele>
        <time>2015-07-26T08:36:22Z</time>
      </trkpt>
      <trkpt lat="47.82603" lon="6.95092">
        <ele>560</ele>
        <time>2015-07-26T08:36:32Z</time>
      </trkpt>
      <trkpt lat="47.82603" lon="6.95084">
        <ele>560</ele>
        <time>2015-07-26T08:36:36Z</time>
      </trkpt>
      <trkpt lat="47.82602" lon="6.95077">
        <ele>560</ele>
        <time>2015-07-26T08:36:41Z</time>
      </trkpt>
      <trkpt lat="47.82597" lon="6.95078">
        <ele>560</ele>
        <time>2015-07-26T08:36:45Z</time>
      </trkpt>
      <trkpt lat="47.82607" lon="6.95077">
        <ele>560</ele>
        <time>2015-07-26T08:36:51Z</time>
      </trkpt>
      <trkpt lat="47.82612" lon="6.95071">
        <ele>558.5</ele>
        <time>2015-07-26T08:37:18Z</time>
      </trkpt>
      <trkpt lat="47.82617" lon="6.95065">
        <ele>558</ele>
        <time>2015-07-26T08:37:23Z</time>
      </trkpt>
      <trkpt lat="47.82618" lon="6.95059">
        <ele>558</ele>
        <time>2015-07-26T08:37:39Z</time>
      </trkpt>
      <trkpt lat="47.82613" lon="6.95053">
        <ele>558</ele>
        <time>2015-07-26T08:37:43Z</time>
      </trkpt>
      <trkpt lat="47.82608" lon="6.95051">
        <ele>558</ele>
        <time>2015-07-26T08:37:45Z</time>
      </trkpt>
      <trkpt lat="47.82602" lon="6.95049">
        <ele>557</ele>
        <time>2015-07-26T08:37:48Z</time>
      </trkpt>
      <trkpt lat="47.82598" lon="6.95053">
        <ele>557</ele>
        <time>2015-07-26T08:37:52Z</time>
      </trkpt>
      <trkpt lat="47.82596" lon="6.9506">
        <ele>557</ele>
        <time>2015-07-26T08:37:57Z</time>
      </trkpt>
      <trkpt lat="47.82598" lon="6.95067">
        <ele>557</ele>
        <time>2015-07-26T08:38:00Z</time>
      </trkpt>
      <trkpt lat="47.82602" lon="6.9508">
        <ele>557.8</ele>
        <time>2015-07-26T08:38:07Z</time>
      </trkpt>
      <trkpt lat="47.82599" lon="6.95085">
        <ele>558.7</ele>
        <time>2015-07-26T08:38:17Z</time>
      </trkpt>
      <trkpt lat="47.82602" lon="6.95079">
        <ele>559</ele>
        <time>2015-07-26T08:38:35Z</time>
      </trkpt>
      <trkpt lat="47.82604" lon="6.95072">
        <ele>560</ele>
        <time>2015-07-26T08:38:40Z</time>
      </trkpt>
      <trkpt lat="47.826" lon="6.95072">
        <ele>560</ele>
        <time>2015-07-26T08:38:52Z</time>
      </trkpt>
      <trkpt lat="47.82598" lon="6.95078">
        <ele>560</ele>
        <time>2015-07-26T08:38:56Z</time>
      </trkpt>
      <trkpt lat="47.826" lon="6.95092">
        <ele>560</ele>
        <time>2015-07-26T08:39:16Z</time>
      </trkpt>
      <trkpt lat="47.82601" lon="6.95084">
        <ele>563</ele>
        <time>2015-07-26T08:40:02Z</time>
      </trkpt>
      <trkpt lat="47.82606" lon="6.95087">
        <ele>556</ele>
        <time>2015-07-26T08:40:57Z</time>
      </trkpt>
      <trkpt lat="47.82602" lon="6.95092">
        <ele>555.2</ele>
        <time>2015-07-26T08:41:09Z</time>
      </trkpt>
      <trkpt lat="47.82607" lon="6.95088">
        <ele>555</ele>
        <time>2015-07-26T08:41:25Z</time>
      </trkpt>
      <trkpt lat="47.82605" lon="6.95081">
        <ele>560</ele>
        <time>2015-07-26T08:42:05Z</time>
      </trkpt>
      <trkpt lat="47.82607" lon="6.95087">
        <ele>560</ele>
        <time>2015-07-26T08:42:19Z</time>
      </trkpt>
      <trkpt lat="47.82614" lon="6.95096">
        <ele>560</ele>
        <time>2015-07-26T08:42:26Z</time>
      </trkpt>
      <trkpt lat="47.82616" lon="6.95103">
        <ele>560</ele>
        <time>2015-07-26T08:42:33Z</time>
      </trkpt>
      <trkpt lat="47.82624" lon="6.95113">
        <ele>560</ele>
        <time>2015-07-26T08:42:44Z</time>
      </trkpt>
      <trkpt lat="47.82631" lon="6.95122">
        <ele>559</ele>
        <time>2015-07-26T08:42:51Z</time>
      </trkpt>
      <trkpt lat="47.82638" lon="6.95129">
        <ele>558.3</ele>
        <time>2015-07-26T08:42:56Z</time>
      </trkpt>
      <trkpt lat="47.82643" lon="6.95131">
        <ele>558</ele>
        <time>2015-07-26T08:43:03Z</time>
      </trkpt>
      <trkpt lat="47.82653" lon="6.95138">
        <ele>558.8</ele>
        <time>2015-07-26T08:43:16Z</time>
      </trkpt>
      <trkpt lat="47.82667" lon="6.95138">
        <ele>559</ele>
        <time>2015-07-26T08:43:32Z</time>
      </trkpt>
      <trkpt lat="47.82682" lon="6.95138">
        <ele>564.9</ele>
        <time>2015-07-26T08:43:45Z</time>
      </trkpt>
      <trkpt lat="47.82689" lon="6.95139">
        <ele>566</ele>
        <time>2015-07-26T08:43:49Z</time>
      </trkpt>
      <trkpt lat="47.82694" lon="6.95141">
        <ele>567.4</ele>
        <time>2015-07-26T08:43:57Z</time>
      </trkpt>
      <trkpt lat="47.82699" lon="6.95141">
        <ele>568</ele>
        <time>2015-07-26T08:44:01Z</time>
      </trkpt>
      <trkpt lat="47.82712" lon="6.95142">
        <ele>570</ele>
        <time>2015-07-26T08:44:16Z</time>
      </trkpt>
      <trkpt lat="47.82726" lon="6.95143">
        <ele>570.9</ele>
        <time>2015-07-26T08:44:27Z</time>
      </trkpt>
      <trkpt lat="47.82735" lon="6.95142">
        <ele>571</ele>
        <time>2015-07-26T08:44:34Z</time>
      </trkpt>
      <trkpt lat="47.82749" lon="6.95146">
        <ele>572</ele>
        <time>2015-07-26T08:44:46Z</time>
      </trkpt>
      <trkpt lat="47.82752" lon="6.95151">
        <ele>572</ele>
        <time>2015-07-26T08:44:51Z</time>
      </trkpt>
      <trkpt lat="47.82755" lon="6.95166">
        <ele>571.5</ele>
        <time>2015-07-26T08:44:59Z</time>
      </trkpt>
      <trkpt lat="47.82752" lon="6.95174">
        <ele>571</ele>
        <time>2015-07-26T08:45:07Z</time>
      </trkpt>
      <trkpt lat="47.82749" lon="6.95187">
        <ele>571</ele>
        <time>2015-07-26T08:45:15Z</time>
      </trkpt>
      <trkpt lat="47.82749" lon="6.95201">
        <ele>571</ele>
        <time>2015-07-26T08:45:25Z</time>
      </trkpt>
      <trkpt lat="47.82745" lon="6.95221">
        <ele>571</ele>
        <time>2015-07-26T08:45:34Z</time>
      </trkpt>
      <trkpt lat="47.8274" lon="6.95235">
        <ele>572.9</ele>
        <time>2015-07-26T08:45:42Z</time>
      </trkpt>
      <trkpt lat="47.82734" lon="6.95246">
        <ele>573</ele>
        <time>2015-07-26T08:45:52Z</time>
      </trkpt>
      <trkpt lat="47.82727" lon="6.95264">
        <ele>573</ele>
        <time>2015-07-26T08:46:07Z</time>
      </trkpt>
      <trkpt lat="47.82725" lon="6.95279">
        <ele>572.1</ele>
        <time>2015-07-26T08:46:15Z</time>
      </trkpt>
      <trkpt lat="47.82724" lon="6.95287">
        <ele>571.3</ele>
        <time>2015-07-26T08:46:22Z</time>
      </trkpt>
      <trkpt lat="47.82723" lon="6.95294">
        <ele>570.1</ele>
        <time>2015-07-26T08:46:27Z</time>
      </trkpt>
      <trkpt lat="47.82722" lon="6.95302">
        <ele>570</ele>
        <time>2015-07-26T08:46:31Z</time>
      </trkpt>
      <trkpt lat="47.82718" lon="6.95297">
        <ele>569.5</ele>
        <time>2015-07-26T08:46:37Z</time>
      </trkpt>
      <trkpt lat="47.82714" lon="6.95292">
        <ele>569</ele>
        <time>2015-07-26T08:46:42Z</time>
      </trkpt>
      <trkpt lat="47.82705" lon="6.9529">
        <ele>568.5</ele>
        <time>2015-07-26T08:46:49Z</time>
      </trkpt>
      <trkpt lat="47.827" lon="6.95293">
        <ele>568</ele>
        <time>2015-07-26T08:46:53Z</time>
      </trkpt>
      <trkpt lat="47.82694" lon="6.95297">
        <ele>568</ele>
        <time>2015-07-26T08:46:56Z</time>
      </trkpt>
      <trkpt lat="47.82687" lon="6.95305">
        <ele>567</ele>
        <time>2015-07-26T08:47:04Z</time>
      </trkpt>
      <trkpt lat="47.82683" lon="6.95309">
        <ele>566.1</ele>
        <time>2015-07-26T08:47:12Z</time>
      </trkpt>
      <trkpt lat="47.82678" lon="6.95307">
        <ele>565</ele>
        <time>2015-07-26T08:47:17Z</time>
      </trkpt>
      <trkpt lat="47.82664" lon="6.95312">
        <ele>563.5</ele>
        <time>2015-07-26T08:47:26Z</time>
      </trkpt>
      <trkpt lat="47.82654" lon="6.95313">
        <ele>562.5</ele>
        <time>2015-07-26T08:47:31Z</time>
      </trkpt>
      <trkpt lat="47.82644" lon="6.95316">
        <ele>562</ele>
        <time>2015-07-26T08:47:38Z</time>
      </trkpt>
      <trkpt lat="47.82641" lon="6.95312">
        <ele>561</ele>
        <time>2015-07-26T08:47:43Z</time>
      </trkpt>
      <trkpt lat="47.82637" lon="6.95299">
        <ele>561</ele>
        <time>2015-07-26T08:47:55Z</time>
      </trkpt>
      <trkpt lat="47.82633" lon="6.95292">
        <ele>561</ele>
        <time>2015-07-26T08:48:02Z</time>
      </trkpt>
      <trkpt lat="47.8263" lon="6.95285">
        <ele>561.8</ele>
        <time>2015-07-26T08:48:06Z</time>
      </trkpt>
      <trkpt lat="47.82625" lon="6.95284">
        <ele>561.8</ele>
        <time>2015-07-26T08:48:09Z</time>
      </trkpt>
      <trkpt lat="47.82619" lon="6.95282">
        <ele>562</ele>
        <time>2015-07-26T08:48:13Z</time>
      </trkpt>
      <trkpt lat="47.82615" lon="6.95277">
        <ele>562</ele>
        <time>2015-07-26T08:48:18Z</time>
      </trkpt>
      <trkpt lat="47.82611" lon="6.95274">
        <ele>562</ele>
        <time>2015-07-26T08:48:22Z</time>
      </trkpt>
      <trkpt lat="47.82607" lon="6.95269">
        <ele>562</ele>
        <time>2015-07-26T08:48:25Z</time>
      </trkpt>
      <trkpt lat="47.826" lon="6.95259">
        <ele>562</ele>
        <time>2015-07-26T08:48:32Z</time>
      </trkpt>
      <trkpt lat="47.82592" lon="6.95253">
        <ele>562</ele>
        <time>2015-07-26T08:48:42Z</time>
      </trkpt>
      <trkpt lat="47.82587" lon="6.95256">
        <ele>562</ele>
        <time>2015-07-26T08:48:47Z</time>
      </trkpt>
      <trkpt lat="47.82581" lon="6.9526">
        <ele>560.1</ele>
        <time>2015-07-26T08:48:53Z</time>
      </trkpt>
      <trkpt lat="47.82579" lon="6.95267">
        <ele>560</ele>
        <time>2015-07-26T08:48:59Z</time>
      </trkpt>
      <trkpt lat="47.82579" lon="6.95274">
        <ele>559</ele>
        <time>2015-07-26T08:49:03Z</time>
      </trkpt>
      <trkpt lat="47.82578" lon="6.95283">
        <ele>559</ele>
        <time>2015-07-26T08:49:09Z</time>
      </trkpt>
      <trkpt lat="47.82574" lon="6.95284">
        <ele>559</ele>
        <time>2015-07-26T08:49:17Z</time>
      </trkpt>
      <trkpt lat="47.82567" lon="6.95278">
        <ele>559.5</ele>
        <time>2015-07-26T08:49:25Z</time>
      </trkpt>
      <trkpt lat="47.82567" lon="6.95271">
        <ele>560</ele>
        <time>2015-07-26T08:49:41Z</time>
      </trkpt>
      <trkpt lat="47.82564" lon="6.95267">
        <ele>561.7</ele>
        <time>2015-07-26T08:49:49Z</time>
      </trkpt>
      <trkpt lat="47.82555" lon="6.95261">
        <ele>566.2</ele>
        <time>2015-07-26T08:49:56Z</time>
      </trkpt>
      <trkpt lat="47.82551" lon="6.95257">
        <ele>569.8</ele>
        <time>2015-07-26T08:49:59Z</time>
      </trkpt>
      <trkpt lat="47.82546" lon="6.95255">
        <ele>569.8</ele>
        <time>2015-07-26T08:50:01Z</time>
      </trkpt>
      <trkpt lat="47.82533" lon="6.95247">
        <ele>571.2</ele>
        <time>2015-07-26T08:50:10Z</time>
      </trkpt>
      <trkpt lat="47.82528" lon="6.95246">
        <ele>572.7</ele>
        <time>2015-07-26T08:50:17Z</time>
      </trkpt>
      <trkpt lat="47.82524" lon="6.95243">
        <ele>573</ele>
        <time>2015-07-26T08:50:22Z</time>
      </trkpt>
      <trkpt lat="47.82519" lon="6.95239">
        <ele>573</ele>
        <time>2015-07-26T08:50:27Z</time>
      </trkpt>
      <trkpt lat="47.82515" lon="6.95233">
        <ele>573</ele>
        <time>2015-07-26T08:50:34Z</time>
      </trkpt>
      <trkpt lat="47.82507" lon="6.95225">
        <ele>572</ele>
        <time>2015-07-26T08:50:46Z</time>
      </trkpt>
      <trkpt lat="47.82502" lon="6.95224">
        <ele>572</ele>
        <time>2015-07-26T08:50:52Z</time>
      </trkpt>
      <trkpt lat="47.82492" lon="6.9522">
        <ele>572</ele>
        <time>2015-07-26T08:50:58Z</time>
      </trkpt>
      <trkpt lat="47.8248" lon="6.95211">
        <ele>572</ele>
        <time>2015-07-26T08:51:06Z</time>
      </trkpt>
      <trkpt lat="47.82476" lon="6.95206">
        <ele>572</ele>
        <time>2015-07-26T08:51:18Z</time>
      </trkpt>
      <trkpt lat="47.82472" lon="6.95206">
        <ele>572</ele>
        <time>2015-07-26T08:51:24Z</time>
      </trkpt>
      <trkpt lat="47.82464" lon="6.95202">
        <ele>572</ele>
        <time>2015-07-26T08:51:30Z</time>
      </trkpt>
      <trkpt lat="47.82453" lon="6.95191">
        <ele>572.5</ele>
        <time>2015-07-26T08:51:41Z</time>
      </trkpt>
      <trkpt lat="47.82449" lon="6.95189">
        <ele>573</ele>
        <time>2015-07-26T08:51:46Z</time>
      </trkpt>
      <trkpt lat="47.82444" lon="6.95186">
        <ele>573</ele>
        <time>2015-07-26T08:51:52Z</time>
      </trkpt>
      <trkpt lat="47.8244" lon="6.95182">
        <ele>573.9</ele>
        <time>2015-07-26T08:51:55Z</time>
      </trkpt>
      <trkpt lat="47.82433" lon="6.95172">
        <ele>574</ele>
        <time>2015-07-26T08:52:00Z</time>
      </trkpt>
      <trkpt lat="47.82428" lon="6.95168">
        <ele>574</ele>
        <time>2015-07-26T08:52:06Z</time>
      </trkpt>
      <trkpt lat="47.82424" lon="6.95167">
        <ele>574</ele>
        <time>2015-07-26T08:52:10Z</time>
      </trkpt>
      <trkpt lat="47.82415" lon="6.95161">
        <ele>576.4</ele>
        <time>2015-07-26T08:52:21Z</time>
      </trkpt>
      <trkpt lat="47.82411" lon="6.95158">
        <ele>577.7</ele>
        <time>2015-07-26T08:52:28Z</time>
      </trkpt>
      <trkpt lat="47.82406" lon="6.95155">
        <ele>579</ele>
        <time>2015-07-26T08:52:34Z</time>
      </trkpt>
      <trkpt lat="47.82399" lon="6.95145">
        <ele>580</ele>
        <time>2015-07-26T08:52:43Z</time>
      </trkpt>
      <trkpt lat="47.82395" lon="6.9514">
        <ele>580.9</ele>
        <time>2015-07-26T08:52:48Z</time>
      </trkpt>
      <trkpt lat="47.82386" lon="6.95134">
        <ele>581.9</ele>
        <time>2015-07-26T08:52:54Z</time>
      </trkpt>
      <trkpt lat="47.82382" lon="6.95131">
        <ele>582</ele>
        <time>2015-07-26T08:52:57Z</time>
      </trkpt>
      <trkpt lat="47.82372" lon="6.95127">
        <ele>582</ele>
        <time>2015-07-26T08:53:04Z</time>
      </trkpt>
      <trkpt lat="47.82368" lon="6.95125">
        <ele>583</ele>
        <time>2015-07-26T08:53:07Z</time>
      </trkpt>
      <trkpt lat="47.82364" lon="6.95123">
        <ele>583</ele>
        <time>2015-07-26T08:53:10Z</time>
      </trkpt>
      <trkpt lat="47.82357" lon="6.95121">
        <ele>583.5</ele>
        <time>2015-07-26T08:53:16Z</time>
      </trkpt>
      <trkpt lat="47.82344" lon="6.95113">
        <ele>586</ele>
        <time>2015-07-26T08:53:31Z</time>
      </trkpt>
      <trkpt lat="47.82338" lon="6.9511">
        <ele>588</ele>
        <time>2015-07-26T08:53:42Z</time>
      </trkpt>
      <trkpt lat="47.82333" lon="6.95109">
        <ele>588</ele>
        <time>2015-07-26T08:53:46Z</time>
      </trkpt>
      <trkpt lat="47.82328" lon="6.95109">
        <ele>588</ele>
        <time>2015-07-26T08:53:49Z</time>
      </trkpt>
      <trkpt lat="47.82318" lon="6.95114">
        <ele>588</ele>
        <time>2015-07-26T08:53:58Z</time>
      </trkpt>
      <trkpt lat="47.82315" lon="6.95119">
        <ele>588</ele>
        <time>2015-07-26T08:54:04Z</time>
      </trkpt>
      <trkpt lat="47.8231" lon="6.95122">
        <ele>588</ele>
        <time>2015-07-26T08:54:09Z</time>
      </trkpt>
      <trkpt lat="47.82306" lon="6.95126">
        <ele>587.5</ele>
        <time>2015-07-26T08:54:15Z</time>
      </trkpt>
      <trkpt lat="47.82302" lon="6.95123">
        <ele>587.5</ele>
        <time>2015-07-26T08:54:19Z</time>
      </trkpt>
      <trkpt lat="47.82298" lon="6.95114">
        <ele>587</ele>
        <time>2015-07-26T08:54:26Z</time>
      </trkpt>
      <trkpt lat="47.82298" lon="6.95107">
        <ele>587</ele>
        <time>2015-07-26T08:54:52Z</time>
      </trkpt>
      <trkpt lat="47.82297" lon="6.951">
        <ele>587</ele>
        <time>2015-07-26T08:54:58Z</time>
      </trkpt>
      <trkpt lat="47.82294" lon="6.95093">
        <ele>588</ele>
        <time>2015-07-26T08:55:03Z</time>
      </trkpt>
      <trkpt lat="47.82285" lon="6.95078">
        <ele>588.9</ele>
        <time>2015-07-26T08:55:15Z</time>
      </trkpt>
      <trkpt lat="47.82273" lon="6.95067">
        <ele>589</ele>
        <time>2015-07-26T08:55:25Z</time>
      </trkpt>
      <trkpt lat="47.82266" lon="6.95065">
        <ele>589</ele>
        <time>2015-07-26T08:55:32Z</time>
      </trkpt>
      <trkpt lat="47.82261" lon="6.95061">
        <ele>589.9</ele>
        <time>2015-07-26T08:55:35Z</time>
      </trkpt>
      <trkpt lat="47.82249" lon="6.9505">
        <ele>590.7</ele>
        <time>2015-07-26T08:55:43Z</time>
      </trkpt>
      <trkpt lat="47.82242" lon="6.95041">
        <ele>592.7</ele>
        <time>2015-07-26T08:55:49Z</time>
      </trkpt>
      <trkpt lat="47.82238" lon="6.95037">
        <ele>593.7</ele>
        <time>2015-07-26T08:55:53Z</time>
      </trkpt>
      <trkpt lat="47.82235" lon="6.95032">
        <ele>595</ele>
        <time>2015-07-26T08:56:02Z</time>
      </trkpt>
      <trkpt lat="47.8223" lon="6.95027">
        <ele>597.8</ele>
        <time>2015-07-26T08:56:06Z</time>
      </trkpt>
      <trkpt lat="47.82221" lon="6.95023">
        <ele>598.9</ele>
        <time>2015-07-26T08:56:12Z</time>
      </trkpt>
      <trkpt lat="47.82217" lon="6.95019">
        <ele>600.5</ele>
        <time>2015-07-26T08:56:16Z</time>
      </trkpt>
      <trkpt lat="47.82214" lon="6.95011">
        <ele>601.9</ele>
        <time>2015-07-26T08:56:21Z</time>
      </trkpt>
      <trkpt lat="47.8221" lon="6.95007">
        <ele>602</ele>
        <time>2015-07-26T08:56:29Z</time>
      </trkpt>
      <trkpt lat="47.82208" lon="6.95">
        <ele>602</ele>
        <time>2015-07-26T08:56:34Z</time>
      </trkpt>
      <trkpt lat="47.82203" lon="6.94995">
        <ele>602</ele>
        <time>2015-07-26T08:56:43Z</time>
      </trkpt>
      <trkpt lat="47.82201" lon="6.94989">
        <ele>602</ele>
        <time>2015-07-26T08:56:48Z</time>
      </trkpt>
      <trkpt lat="47.82197" lon="6.94985">
        <ele>602</ele>
        <time>2015-07-26T08:56:53Z</time>
      </trkpt>
      <trkpt lat="47.8219" lon="6.94977">
        <ele>601</ele>
        <time>2015-07-26T08:57:00Z</time>
      </trkpt>
      <trkpt lat="47.82183" lon="6.94959">
        <ele>600.5</ele>
        <time>2015-07-26T08:57:10Z</time>
      </trkpt>
      <trkpt lat="47.82173" lon="6.94944">
        <ele>599</ele>
        <time>2015-07-26T08:57:20Z</time>
      </trkpt>
      <trkpt lat="47.82165" lon="6.94934">
        <ele>598</ele>
        <time>2015-07-26T08:57:26Z</time>
      </trkpt>
      <trkpt lat="47.82165" lon="6.94927">
        <ele>598</ele>
        <time>2015-07-26T08:57:33Z</time>
      </trkpt>
      <trkpt lat="47.82165" lon="6.9492">
        <ele>597.1</ele>
        <time>2015-07-26T08:57:39Z</time>
      </trkpt>
      <trkpt lat="47.82161" lon="6.94913">
        <ele>597</ele>
        <time>2015-07-26T08:57:44Z</time>
      </trkpt>
      <trkpt lat="47.8216" lon="6.94906">
        <ele>595.1</ele>
        <time>2015-07-26T08:57:51Z</time>
      </trkpt>
      <trkpt lat="47.82155" lon="6.94898">
        <ele>590.3</ele>
        <time>2015-07-26T08:57:58Z</time>
      </trkpt>
      <trkpt lat="47.82151" lon="6.94893">
        <ele>589.1</ele>
        <time>2015-07-26T08:58:02Z</time>
      </trkpt>
      <trkpt lat="47.82151" lon="6.94886">
        <ele>580.6</ele>
        <time>2015-07-26T08:58:08Z</time>
      </trkpt>
      <trkpt lat="47.82151" lon="6.94879">
        <ele>576.4</ele>
        <time>2015-07-26T08:58:14Z</time>
      </trkpt>
      <trkpt lat="47.82148" lon="6.94872">
        <ele>576</ele>
        <time>2015-07-26T08:58:18Z</time>
      </trkpt>
      <trkpt lat="47.82145" lon="6.94865">
        <ele>576</ele>
        <time>2015-07-26T08:58:22Z</time>
      </trkpt>
      <trkpt lat="47.82143" lon="6.94858">
        <ele>575.5</ele>
        <time>2015-07-26T08:58:28Z</time>
      </trkpt>
      <trkpt lat="47.82137" lon="6.94847">
        <ele>575</ele>
        <time>2015-07-26T08:58:36Z</time>
      </trkpt>
      <trkpt lat="47.82133" lon="6.94844">
        <ele>575</ele>
        <time>2015-07-26T08:58:44Z</time>
      </trkpt>
      <trkpt lat="47.82128" lon="6.94832">
        <ele>575</ele>
        <time>2015-07-26T08:58:53Z</time>
      </trkpt>
      <trkpt lat="47.82125" lon="6.94826">
        <ele>575</ele>
        <time>2015-07-26T08:58:56Z</time>
      </trkpt>
      <trkpt lat="47.82126" lon="6.94819">
        <ele>575</ele>
        <time>2015-07-26T08:59:07Z</time>
      </trkpt>
      <trkpt lat="47.82124" lon="6.94812">
        <ele>575</ele>
        <time>2015-07-26T08:59:18Z</time>
      </trkpt>
      <trkpt lat="47.82122" lon="6.94805">
        <ele>575</ele>
        <time>2015-07-26T08:59:23Z</time>
      </trkpt>
      <trkpt lat="47.82119" lon="6.948">
        <ele>575</ele>
        <time>2015-07-26T08:59:26Z</time>
      </trkpt>
      <trkpt lat="47.82114" lon="6.94796">
        <ele>575</ele>
        <time>2015-07-26T08:59:29Z</time>
      </trkpt>
      <trkpt lat="47.82107" lon="6.94788">
        <ele>575</ele>
        <time>2015-07-26T08:59:36Z</time>
      </trkpt>
      <trkpt lat="47.82102" lon="6.94779">
        <ele>575</ele>
        <time>2015-07-26T08:59:41Z</time>
      </trkpt>
      <trkpt lat="47.821" lon="6.94771">
        <ele>575</ele>
        <time>2015-07-26T08:59:44Z</time>
      </trkpt>
      <trkpt lat="47.82097" lon="6.94765">
        <ele>575</ele>
        <time>2015-07-26T08:59:49Z</time>
      </trkpt>
      <trkpt lat="47.82093" lon="6.94759">
        <ele>574.2</ele>
        <time>2015-07-26T08:59:53Z</time>
      </trkpt>
      <trkpt lat="47.82089" lon="6.94752">
        <ele>573.1</ele>
        <time>2015-07-26T08:59:58Z</time>
      </trkpt>
      <trkpt lat="47.82087" lon="6.94745">
        <ele>572.1</ele>
        <time>2015-07-26T09:00:05Z</time>
      </trkpt>
      <trkpt lat="47.82091" lon="6.94752">
        <ele>572.1</ele>
        <time>2015-07-26T09:00:09Z</time>
      </trkpt>
      <trkpt lat="47.82098" lon="6.94763">
        <ele>566.3</ele>
        <time>2015-07-26T09:00:17Z</time>
      </trkpt>
      <trkpt lat="47.82104" lon="6.94758">
        <ele>562.3</ele>
        <time>2015-07-26T09:00:29Z</time>
      </trkpt>
      <trkpt lat="47.82099" lon="6.94764">
        <ele>558.1</ele>
        <time>2015-07-26T09:00:42Z</time>
      </trkpt>
      <trkpt lat="47.82098" lon="6.94772">
        <ele>558</ele>
        <time>2015-07-26T09:00:46Z</time>
      </trkpt>
      <trkpt lat="47.82098" lon="6.94779">
        <ele>557</ele>
        <time>2015-07-26T09:00:53Z</time>
      </trkpt>
      <trkpt lat="47.82094" lon="6.94779">
        <ele>557</ele>
        <time>2015-07-26T09:00:56Z</time>
      </trkpt>
      <trkpt lat="47.82082" lon="6.9478">
        <ele>555.1</ele>
        <time>2015-07-26T09:01:08Z</time>
      </trkpt>
      <trkpt lat="47.82079" lon="6.94774">
        <ele>555</ele>
        <time>2015-07-26T09:01:14Z</time>
      </trkpt>
      <trkpt lat="47.82069" lon="6.9477">
        <ele>553.5</ele>
        <time>2015-07-26T09:01:23Z</time>
      </trkpt>
      <trkpt lat="47.82063" lon="6.94768">
        <ele>550.3</ele>
        <time>2015-07-26T09:01:31Z</time>
      </trkpt>
      <trkpt lat="47.82066" lon="6.94761">
        <ele>550</ele>
        <time>2015-07-26T09:01:34Z</time>
      </trkpt>
      <trkpt lat="47.82071" lon="6.94757">
        <ele>549.5</ele>
        <time>2015-07-26T09:01:37Z</time>
      </trkpt>
      <trkpt lat="47.82067" lon="6.94761">
        <ele>548.1</ele>
        <time>2015-07-26T09:01:43Z</time>
      </trkpt>
      <trkpt lat="47.82065" lon="6.94768">
        <ele>548</ele>
        <time>2015-07-26T09:01:47Z</time>
      </trkpt>
      <trkpt lat="47.82064" lon="6.94775">
        <ele>548</ele>
        <time>2015-07-26T09:01:56Z</time>
      </trkpt>
      <trkpt lat="47.82067" lon="6.94779">
        <ele>549.7</ele>
        <time>2015-07-26T09:02:16Z</time>
      </trkpt>
      <trkpt lat="47.82072" lon="6.94776">
        <ele>563</ele>
        <time>2015-07-26T09:03:08Z</time>
      </trkpt>
      <trkpt lat="47.82086" lon="6.94777">
        <ele>563</ele>
        <time>2015-07-26T09:03:20Z</time>
      </trkpt>
      <trkpt lat="47.82093" lon="6.94775">
        <ele>561.5</ele>
        <time>2015-07-26T09:03:30Z</time>
      </trkpt>
      <trkpt lat="47.82095" lon="6.94769">
        <ele>561.5</ele>
        <time>2015-07-26T09:03:33Z</time>
      </trkpt>
      <trkpt lat="47.82099" lon="6.94759">
        <ele>556.6</ele>
        <time>2015-07-26T09:03:44Z</time>
      </trkpt>
      <trkpt lat="47.82098" lon="6.94752">
        <ele>554.3</ele>
        <time>2015-07-26T09:03:49Z</time>
      </trkpt>
      <trkpt lat="47.82103" lon="6.94749">
        <ele>553.5</ele>
        <time>2015-07-26T09:03:56Z</time>
      </trkpt>
      <trkpt lat="47.82106" lon="6.94743">
        <ele>553.5</ele>
        <time>2015-07-26T09:04:00Z</time>
      </trkpt>
      <trkpt lat="47.82104" lon="6.94736">
        <ele>552.1</ele>
        <time>2015-07-26T09:04:08Z</time>
      </trkpt>
      <trkpt lat="47.82099" lon="6.94734">
        <ele>551</ele>
        <time>2015-07-26T09:04:13Z</time>
      </trkpt>
      <trkpt lat="47.82089" lon="6.94735">
        <ele>546.6</ele>
        <time>2015-07-26T09:04:23Z</time>
      </trkpt>
      <trkpt lat="47.82086" lon="6.94729">
        <ele>546</ele>
        <time>2015-07-26T09:04:28Z</time>
      </trkpt>
      <trkpt lat="47.82084" lon="6.94722">
        <ele>546</ele>
        <time>2015-07-26T09:04:33Z</time>
      </trkpt>
      <trkpt lat="47.82085" lon="6.94715">
        <ele>546</ele>
        <time>2015-07-26T09:04:38Z</time>
      </trkpt>
      <trkpt lat="47.82088" lon="6.94709">
        <ele>545</ele>
        <time>2015-07-26T09:04:48Z</time>
      </trkpt>
      <trkpt lat="47.82088" lon="6.94702">
        <ele>544</ele>
        <time>2015-07-26T09:05:02Z</time>
      </trkpt>
      <trkpt lat="47.82086" lon="6.94695">
        <ele>542.2</ele>
        <time>2015-07-26T09:05:28Z</time>
      </trkpt>
      <trkpt lat="47.82083" lon="6.9469">
        <ele>541</ele>
        <time>2015-07-26T09:05:51Z</time>
      </trkpt>
      <trkpt lat="47.82079" lon="6.94677">
        <ele>541</ele>
        <time>2015-07-26T09:06:02Z</time>
      </trkpt>
      <trkpt lat="47.82077" lon="6.9467">
        <ele>541</ele>
        <time>2015-07-26T09:06:08Z</time>
      </trkpt>
      <trkpt lat="47.8207" lon="6.94652">
        <ele>541.9</ele>
        <time>2015-07-26T09:06:23Z</time>
      </trkpt>
      <trkpt lat="47.82068" lon="6.94635">
        <ele>541.1</ele>
        <time>2015-07-26T09:06:43Z</time>
      </trkpt>
      <trkpt lat="47.82069" lon="6.94646">
        <ele>541</ele>
        <time>2015-07-26T09:06:50Z</time>
      </trkpt>
      <trkpt lat="47.82069" lon="6.94656">
        <ele>540</ele>
        <time>2015-07-26T09:06:56Z</time>
      </trkpt>
      <trkpt lat="47.82072" lon="6.94662">
        <ele>539.3</ele>
        <time>2015-07-26T09:07:08Z</time>
      </trkpt>
      <trkpt lat="47.82077" lon="6.94659">
        <ele>539</ele>
        <time>2015-07-26T09:07:30Z</time>
      </trkpt>
      <trkpt lat="47.82078" lon="6.94653">
        <ele>544</ele>
        <time>2015-07-26T09:08:23Z</time>
      </trkpt>
      <trkpt lat="47.82083" lon="6.94652">
        <ele>544</ele>
        <time>2015-07-26T09:08:41Z</time>
      </trkpt>
      <trkpt lat="47.82088" lon="6.94657">
        <ele>544</ele>
        <time>2015-07-26T09:08:56Z</time>
      </trkpt>
      <trkpt lat="47.82083" lon="6.94655">
        <ele>544</ele>
        <time>2015-07-26T09:08:57Z</time>
      </trkpt>
      <trkpt lat="47.82078" lon="6.94659">
        <ele>540.1</ele>
        <time>2015-07-26T09:09:19Z</time>
      </trkpt>
      <trkpt lat="47.82073" lon="6.94659">
        <ele>535</ele>
        <time>2015-07-26T09:10:32Z</time>
      </trkpt>
      <trkpt lat="47.82068" lon="6.94658">
        <ele>535</ele>
        <time>2015-07-26T09:10:37Z</time>
      </trkpt>
      <trkpt lat="47.82074" lon="6.94659">
        <ele>534</ele>
        <time>2015-07-26T09:10:46Z</time>
      </trkpt>
      <trkpt lat="47.82079" lon="6.94659">
        <ele>534</ele>
        <time>2015-07-26T09:10:54Z</time>
      </trkpt>
      <trkpt lat="47.82085" lon="6.94649">
        <ele>534</ele>
        <time>2015-07-26T09:11:10Z</time>
      </trkpt>
      <trkpt lat="47.82088" lon="6.94642">
        <ele>535</ele>
        <time>2015-07-26T09:11:34Z</time>
      </trkpt>
      <trkpt lat="47.82095" lon="6.94631">
        <ele>535</ele>
        <time>2015-07-26T09:11:41Z</time>
      </trkpt>
      <trkpt lat="47.82097" lon="6.94611">
        <ele>532.3</ele>
        <time>2015-07-26T09:11:52Z</time>
      </trkpt>
      <trkpt lat="47.82096" lon="6.94601">
        <ele>527.3</ele>
        <time>2015-07-26T09:11:59Z</time>
      </trkpt>
      <trkpt lat="47.82091" lon="6.94599">
        <ele>527.3</ele>
        <time>2015-07-26T09:12:03Z</time>
      </trkpt>
      <trkpt lat="47.82082" lon="6.94596">
        <ele>526.1</ele>
        <time>2015-07-26T09:12:07Z</time>
      </trkpt>
      <trkpt lat="47.82074" lon="6.94587">
        <ele>526</ele>
        <time>2015-07-26T09:12:14Z</time>
      </trkpt>
      <trkpt lat="47.82066" lon="6.94579">
        <ele>526</ele>
        <time>2015-07-26T09:12:21Z</time>
      </trkpt>
      <trkpt lat="47.82058" lon="6.94573">
        <ele>526</ele>
        <time>2015-07-26T09:12:31Z</time>
      </trkpt>
      <trkpt lat="47.82054" lon="6.94568">
        <ele>527.2</ele>
        <time>2015-07-26T09:12:35Z</time>
      </trkpt>
      <trkpt lat="47.82049" lon="6.94565">
        <ele>527.2</ele>
        <time>2015-07-26T09:12:39Z</time>
      </trkpt>
      <trkpt lat="47.8204" lon="6.94559">
        <ele>529.9</ele>
        <time>2015-07-26T09:12:47Z</time>
      </trkpt>
      <trkpt lat="47.82032" lon="6.94553">
        <ele>530.9</ele>
        <time>2015-07-26T09:12:54Z</time>
      </trkpt>
      <trkpt lat="47.82028" lon="6.94548">
        <ele>531.9</ele>
        <time>2015-07-26T09:12:59Z</time>
      </trkpt>
      <trkpt lat="47.82019" lon="6.94541">
        <ele>533.4</ele>
        <time>2015-07-26T09:13:07Z</time>
      </trkpt>
      <trkpt lat="47.82008" lon="6.94527">
        <ele>534</ele>
        <time>2015-07-26T09:13:22Z</time>
      </trkpt>
      <trkpt lat="47.82001" lon="6.94518">
        <ele>534</ele>
        <time>2015-07-26T09:13:29Z</time>
      </trkpt>
      <trkpt lat="47.81993" lon="6.94502">
        <ele>533.5</ele>
        <time>2015-07-26T09:13:41Z</time>
      </trkpt>
      <trkpt lat="47.8199" lon="6.94496">
        <ele>533</ele>
        <time>2015-07-26T09:13:45Z</time>
      </trkpt>
      <trkpt lat="47.81987" lon="6.94489">
        <ele>533</ele>
        <time>2015-07-26T09:13:50Z</time>
      </trkpt>
      <trkpt lat="47.81983" lon="6.94485">
        <ele>533</ele>
        <time>2015-07-26T09:13:54Z</time>
      </trkpt>
      <trkpt lat="47.8198" lon="6.9448">
        <ele>533</ele>
        <time>2015-07-26T09:13:57Z</time>
      </trkpt>
      <trkpt lat="47.81975" lon="6.94469">
        <ele>532.2</ele>
        <time>2015-07-26T09:14:07Z</time>
      </trkpt>
      <trkpt lat="47.81966" lon="6.94453">
        <ele>532</ele>
        <time>2015-07-26T09:14:20Z</time>
      </trkpt>
      <trkpt lat="47.81963" lon="6.94448">
        <ele>532</ele>
        <time>2015-07-26T09:14:24Z</time>
      </trkpt>
      <trkpt lat="47.81958" lon="6.94446">
        <ele>532</ele>
        <time>2015-07-26T09:14:29Z</time>
      </trkpt>
      <trkpt lat="47.81953" lon="6.94441">
        <ele>532.9</ele>
        <time>2015-07-26T09:14:35Z</time>
      </trkpt>
      <trkpt lat="47.81948" lon="6.94438">
        <ele>534</ele>
        <time>2015-07-26T09:14:40Z</time>
      </trkpt>
      <trkpt lat="47.81943" lon="6.94438">
        <ele>534</ele>
        <time>2015-07-26T09:14:44Z</time>
      </trkpt>
      <trkpt lat="47.8194" lon="6.94433">
        <ele>532.1</ele>
        <time>2015-07-26T09:14:50Z</time>
      </trkpt>
      <trkpt lat="47.81934" lon="6.9443">
        <ele>532.1</ele>
        <time>2015-07-26T09:14:55Z</time>
      </trkpt>
      <trkpt lat="47.81929" lon="6.94427">
        <ele>532</ele>
        <time>2015-07-26T09:15:00Z</time>
      </trkpt>
      <trkpt lat="47.81926" lon="6.94422">
        <ele>532</ele>
        <time>2015-07-26T09:15:06Z</time>
      </trkpt>
      <trkpt lat="47.81917" lon="6.94416">
        <ele>532.9</ele>
        <time>2015-07-26T09:15:14Z</time>
      </trkpt>
      <trkpt lat="47.81909" lon="6.94405">
        <ele>534</ele>
        <time>2015-07-26T09:15:23Z</time>
      </trkpt>
      <trkpt lat="47.81905" lon="6.94401">
        <ele>534.5</ele>
        <time>2015-07-26T09:15:31Z</time>
      </trkpt>
      <trkpt lat="47.81899" lon="6.9439">
        <ele>535</ele>
        <time>2015-07-26T09:15:41Z</time>
      </trkpt>
      <trkpt lat="47.81894" lon="6.94375">
        <ele>535</ele>
        <time>2015-07-26T09:15:51Z</time>
      </trkpt>
      <trkpt lat="47.81891" lon="6.94368">
        <ele>535.9</ele>
        <time>2015-07-26T09:15:57Z</time>
      </trkpt>
      <trkpt lat="47.81887" lon="6.94356">
        <ele>536</ele>
        <time>2015-07-26T09:16:07Z</time>
      </trkpt>
      <trkpt lat="47.81881" lon="6.94345">
        <ele>544.8</ele>
        <time>2015-07-26T09:16:17Z</time>
      </trkpt>
      <trkpt lat="47.81881" lon="6.94337">
        <ele>545.9</ele>
        <time>2015-07-26T09:16:23Z</time>
      </trkpt>
      <trkpt lat="47.81878" lon="6.94324">
        <ele>546</ele>
        <time>2015-07-26T09:16:33Z</time>
      </trkpt>
      <trkpt lat="47.8188" lon="6.94317">
        <ele>546.5</ele>
        <time>2015-07-26T09:16:37Z</time>
      </trkpt>
      <trkpt lat="47.81885" lon="6.94314">
        <ele>547</ele>
        <time>2015-07-26T09:16:42Z</time>
      </trkpt>
      <trkpt lat="47.8189" lon="6.94313">
        <ele>547</ele>
        <time>2015-07-26T09:16:46Z</time>
      </trkpt>
      <trkpt lat="47.81898" lon="6.94311">
        <ele>548</ele>
        <time>2015-07-26T09:16:58Z</time>
      </trkpt>
      <trkpt lat="47.81901" lon="6.94305">
        <ele>548.9</ele>
        <time>2015-07-26T09:17:05Z</time>
      </trkpt>
      <trkpt lat="47.81906" lon="6.94303">
        <ele>549.9</ele>
        <time>2015-07-26T09:17:14Z</time>
      </trkpt>
      <trkpt lat="47.81919" lon="6.94297">
        <ele>550</ele>
        <time>2015-07-26T09:17:27Z</time>
      </trkpt>
      <trkpt lat="47.81933" lon="6.94297">
        <ele>552.7</ele>
        <time>2015-07-26T09:17:40Z</time>
      </trkpt>
      <trkpt lat="47.81937" lon="6.943">
        <ele>555.3</ele>
        <time>2015-07-26T09:17:45Z</time>
      </trkpt>
      <trkpt lat="47.81941" lon="6.94303">
        <ele>557.8</ele>
        <time>2015-07-26T09:17:54Z</time>
      </trkpt>
      <trkpt lat="47.8195" lon="6.94305">
        <ele>559.9</ele>
        <time>2015-07-26T09:18:07Z</time>
      </trkpt>
      <trkpt lat="47.81956" lon="6.94303">
        <ele>560.5</ele>
        <time>2015-07-26T09:18:13Z</time>
      </trkpt>
      <trkpt lat="47.81961" lon="6.94304">
        <ele>561</ele>
        <time>2015-07-26T09:18:21Z</time>
      </trkpt>
      <trkpt lat="47.81968" lon="6.94303">
        <ele>562.9</ele>
        <time>2015-07-26T09:18:31Z</time>
      </trkpt>
      <trkpt lat="47.81973" lon="6.94305">
        <ele>564.5</ele>
        <time>2015-07-26T09:18:37Z</time>
      </trkpt>
      <trkpt lat="47.81982" lon="6.94307">
        <ele>565.9</ele>
        <time>2015-07-26T09:18:48Z</time>
      </trkpt>
      <trkpt lat="47.81995" lon="6.94301">
        <ele>566</ele>
        <time>2015-07-26T09:18:55Z</time>
      </trkpt>
      <trkpt lat="47.82005" lon="6.943">
        <ele>567</ele>
        <time>2015-07-26T09:19:02Z</time>
      </trkpt>
      <trkpt lat="47.82012" lon="6.94301">
        <ele>568.7</ele>
        <time>2015-07-26T09:19:14Z</time>
      </trkpt>
      <trkpt lat="47.82017" lon="6.94304">
        <ele>568.9</ele>
        <time>2015-07-26T09:19:19Z</time>
      </trkpt>
      <trkpt lat="47.82025" lon="6.94298">
        <ele>570</ele>
        <time>2015-07-26T09:19:30Z</time>
      </trkpt>
      <trkpt lat="47.82034" lon="6.94289">
        <ele>570</ele>
        <time>2015-07-26T09:19:38Z</time>
      </trkpt>
      <trkpt lat="47.82038" lon="6.94287">
        <ele>570</ele>
        <time>2015-07-26T09:19:44Z</time>
      </trkpt>
      <trkpt lat="47.82041" lon="6.94281">
        <ele>570</ele>
        <time>2015-07-26T09:19:49Z</time>
      </trkpt>
      <trkpt lat="47.82045" lon="6.94274">
        <ele>569.1</ele>
        <time>2015-07-26T09:19:56Z</time>
      </trkpt>
      <trkpt lat="47.82046" lon="6.94267">
        <ele>569</ele>
        <time>2015-07-26T09:20:04Z</time>
      </trkpt>
      <trkpt lat="47.8205" lon="6.94261">
        <ele>569</ele>
        <time>2015-07-26T09:20:12Z</time>
      </trkpt>
      <trkpt lat="47.82055" lon="6.94255">
        <ele>570.4</ele>
        <time>2015-07-26T09:20:33Z</time>
      </trkpt>
      <trkpt lat="47.82055" lon="6.94249">
        <ele>571.9</ele>
        <time>2015-07-26T09:20:43Z</time>
      </trkpt>
      <trkpt lat="47.82057" lon="6.94242">
        <ele>575</ele>
        <time>2015-07-26T09:20:50Z</time>
      </trkpt>
      <trkpt lat="47.82057" lon="6.94234">
        <ele>575</ele>
        <time>2015-07-26T09:20:54Z</time>
      </trkpt>
      <trkpt lat="47.82053" lon="6.94229">
        <ele>576</ele>
        <time>2015-07-26T09:21:08Z</time>
      </trkpt>
      <trkpt lat="47.8205" lon="6.94222">
        <ele>576</ele>
        <time>2015-07-26T09:21:13Z</time>
      </trkpt>
      <trkpt lat="47.82047" lon="6.94215">
        <ele>576</ele>
        <time>2015-07-26T09:21:17Z</time>
      </trkpt>
      <trkpt lat="47.82039" lon="6.94197">
        <ele>574.3</ele>
        <time>2015-07-26T09:21:30Z</time>
      </trkpt>
      <trkpt lat="47.82036" lon="6.94183">
        <ele>574</ele>
        <time>2015-07-26T09:21:38Z</time>
      </trkpt>
      <trkpt lat="47.82034" lon="6.94176">
        <ele>573</ele>
        <time>2015-07-26T09:21:43Z</time>
      </trkpt>
      <trkpt lat="47.82035" lon="6.94168">
        <ele>573</ele>
        <time>2015-07-26T09:21:49Z</time>
      </trkpt>
      <trkpt lat="47.82035" lon="6.94161">
        <ele>573</ele>
        <time>2015-07-26T09:21:53Z</time>
      </trkpt>
      <trkpt lat="47.82032" lon="6.94141">
        <ele>573</ele>
        <time>2015-07-26T09:22:04Z</time>
      </trkpt>
      <trkpt lat="47.82033" lon="6.94133">
        <ele>573</ele>
        <time>2015-07-26T09:22:08Z</time>
      </trkpt>
      <trkpt lat="47.82033" lon="6.94125">
        <ele>573</ele>
        <time>2015-07-26T09:22:13Z</time>
      </trkpt>
      <trkpt lat="47.8203" lon="6.94109">
        <ele>573</ele>
        <time>2015-07-26T09:22:26Z</time>
      </trkpt>
      <trkpt lat="47.82027" lon="6.94102">
        <ele>573</ele>
        <time>2015-07-26T09:22:34Z</time>
      </trkpt>
      <trkpt lat="47.82027" lon="6.94088">
        <ele>573</ele>
        <time>2015-07-26T09:22:41Z</time>
      </trkpt>
      <trkpt lat="47.82027" lon="6.94081">
        <ele>573</ele>
        <time>2015-07-26T09:22:45Z</time>
      </trkpt>
      <trkpt lat="47.82028" lon="6.94074">
        <ele>573</ele>
        <time>2015-07-26T09:22:53Z</time>
      </trkpt>
      <trkpt lat="47.82028" lon="6.94066">
        <ele>573</ele>
        <time>2015-07-26T09:22:58Z</time>
      </trkpt>
      <trkpt lat="47.82028" lon="6.9405">
        <ele>573</ele>
        <time>2015-07-26T09:23:08Z</time>
      </trkpt>
      <trkpt lat="47.82028" lon="6.9404">
        <ele>573</ele>
        <time>2015-07-26T09:23:13Z</time>
      </trkpt>
      <trkpt lat="47.82027" lon="6.94026">
        <ele>573</ele>
        <time>2015-07-26T09:23:23Z</time>
      </trkpt>
      <trkpt lat="47.82026" lon="6.94019">
        <ele>572</ele>
        <time>2015-07-26T09:23:28Z</time>
      </trkpt>
      <trkpt lat="47.82026" lon="6.94003">
        <ele>572</ele>
        <time>2015-07-26T09:23:39Z</time>
      </trkpt>
      <trkpt lat="47.82022" lon="6.93997">
        <ele>571.2</ele>
        <time>2015-07-26T09:23:43Z</time>
      </trkpt>
      <trkpt lat="47.82015" lon="6.9399">
        <ele>570.5</ele>
        <time>2015-07-26T09:23:50Z</time>
      </trkpt>
      <trkpt lat="47.82015" lon="6.93982">
        <ele>569.3</ele>
        <time>2015-07-26T09:23:55Z</time>
      </trkpt>
      <trkpt lat="47.82012" lon="6.93967">
        <ele>568</ele>
        <time>2015-07-26T09:24:02Z</time>
      </trkpt>
      <trkpt lat="47.82011" lon="6.9396">
        <ele>568</ele>
        <time>2015-07-26T09:24:05Z</time>
      </trkpt>
      <trkpt lat="47.82011" lon="6.9395">
        <ele>568</ele>
        <time>2015-07-26T09:24:11Z</time>
      </trkpt>
      <trkpt lat="47.82014" lon="6.9393">
        <ele>568</ele>
        <time>2015-07-26T09:24:23Z</time>
      </trkpt>
      <trkpt lat="47.82016" lon="6.93914">
        <ele>569</ele>
        <time>2015-07-26T09:24:33Z</time>
      </trkpt>
      <trkpt lat="47.82019" lon="6.93904">
        <ele>570.5</ele>
        <time>2015-07-26T09:24:41Z</time>
      </trkpt>
      <trkpt lat="47.82021" lon="6.93897">
        <ele>572.9</ele>
        <time>2015-07-26T09:24:46Z</time>
      </trkpt>
      <trkpt lat="47.82022" lon="6.93889">
        <ele>573.7</ele>
        <time>2015-07-26T09:24:51Z</time>
      </trkpt>
      <trkpt lat="47.82022" lon="6.9388">
        <ele>574</ele>
        <time>2015-07-26T09:25:00Z</time>
      </trkpt>
      <trkpt lat="47.82019" lon="6.9386">
        <ele>574</ele>
        <time>2015-07-26T09:25:10Z</time>
      </trkpt>
      <trkpt lat="47.82019" lon="6.93851">
        <ele>574</ele>
        <time>2015-07-26T09:25:15Z</time>
      </trkpt>
      <trkpt lat="47.8202" lon="6.93836">
        <ele>574.9</ele>
        <time>2015-07-26T09:25:21Z</time>
      </trkpt>
      <trkpt lat="47.82025" lon="6.93824">
        <ele>575</ele>
        <time>2015-07-26T09:25:28Z</time>
      </trkpt>
      <trkpt lat="47.8203" lon="6.93817">
        <ele>575</ele>
        <time>2015-07-26T09:25:34Z</time>
      </trkpt>
      <trkpt lat="47.82032" lon="6.93811">
        <ele>575</ele>
        <time>2015-07-26T09:25:39Z</time>
      </trkpt>
      <trkpt lat="47.82036" lon="6.93798">
        <ele>574.1</ele>
        <time>2015-07-26T09:25:49Z</time>
      </trkpt>
      <trkpt lat="47.82039" lon="6.93792">
        <ele>575</ele>
        <time>2015-07-26T09:25:54Z</time>
      </trkpt>
      <trkpt lat="47.82044" lon="6.93788">
        <ele>575</ele>
        <time>2015-07-26T09:25:59Z</time>
      </trkpt>
      <trkpt lat="47.82049" lon="6.93777">
        <ele>575</ele>
        <time>2015-07-26T09:26:08Z</time>
      </trkpt>
      <trkpt lat="47.82049" lon="6.93769">
        <ele>575</ele>
        <time>2015-07-26T09:26:12Z</time>
      </trkpt>
      <trkpt lat="47.82051" lon="6.93762">
        <ele>574</ele>
        <time>2015-07-26T09:26:16Z</time>
      </trkpt>
      <trkpt lat="47.82052" lon="6.93754">
        <ele>573.3</ele>
        <time>2015-07-26T09:26:22Z</time>
      </trkpt>
      <trkpt lat="47.8205" lon="6.93739">
        <ele>568.7</ele>
        <time>2015-07-26T09:26:30Z</time>
      </trkpt>
      <trkpt lat="47.8205" lon="6.93732">
        <ele>565.8</ele>
        <time>2015-07-26T09:26:34Z</time>
      </trkpt>
      <trkpt lat="47.82052" lon="6.93725">
        <ele>565</ele>
        <time>2015-07-26T09:26:38Z</time>
      </trkpt>
      <trkpt lat="47.82054" lon="6.93711">
        <ele>565</ele>
        <time>2015-07-26T09:26:47Z</time>
      </trkpt>
      <trkpt lat="47.82054" lon="6.93704">
        <ele>565</ele>
        <time>2015-07-26T09:26:50Z</time>
      </trkpt>
      <trkpt lat="47.82056" lon="6.93697">
        <ele>565</ele>
        <time>2015-07-26T09:26:55Z</time>
      </trkpt>
      <trkpt lat="47.82056" lon="6.93689">
        <ele>565</ele>
        <time>2015-07-26T09:26:59Z</time>
      </trkpt>
      <trkpt lat="47.82055" lon="6.93678">
        <ele>566.7</ele>
        <time>2015-07-26T09:27:07Z</time>
      </trkpt>
      <trkpt lat="47.82056" lon="6.9367">
        <ele>570.8</ele>
        <time>2015-07-26T09:27:15Z</time>
      </trkpt>
      <trkpt lat="47.82059" lon="6.93661">
        <ele>570.8</ele>
        <time>2015-07-26T09:27:19Z</time>
      </trkpt>
      <trkpt lat="47.82058" lon="6.93647">
        <ele>573</ele>
        <time>2015-07-26T09:27:27Z</time>
      </trkpt>
      <trkpt lat="47.82056" lon="6.93641">
        <ele>575.4</ele>
        <time>2015-07-26T09:27:29Z</time>
      </trkpt>
      <trkpt lat="47.82055" lon="6.93634">
        <ele>577.3</ele>
        <time>2015-07-26T09:27:32Z</time>
      </trkpt>
      <trkpt lat="47.82057" lon="6.93628">
        <ele>577.9</ele>
        <time>2015-07-26T09:27:35Z</time>
      </trkpt>
      <trkpt lat="47.82066" lon="6.93612">
        <ele>578</ele>
        <time>2015-07-26T09:27:43Z</time>
      </trkpt>
      <trkpt lat="47.82071" lon="6.93603">
        <ele>579</ele>
        <time>2015-07-26T09:27:50Z</time>
      </trkpt>
      <trkpt lat="47.82073" lon="6.93595">
        <ele>579</ele>
        <time>2015-07-26T09:27:57Z</time>
      </trkpt>
      <trkpt lat="47.82077" lon="6.93581">
        <ele>579</ele>
        <time>2015-07-26T09:28:03Z</time>
      </trkpt>
      <trkpt lat="47.82077" lon="6.93564">
        <ele>578</ele>
        <time>2015-07-26T09:28:12Z</time>
      </trkpt>
      <trkpt lat="47.82081" lon="6.93551">
        <ele>576.8</ele>
        <time>2015-07-26T09:28:19Z</time>
      </trkpt>
      <trkpt lat="47.82084" lon="6.93546">
        <ele>574.1</ele>
        <time>2015-07-26T09:28:23Z</time>
      </trkpt>
      <trkpt lat="47.82086" lon="6.93532">
        <ele>573.1</ele>
        <time>2015-07-26T09:28:32Z</time>
      </trkpt>
      <trkpt lat="47.82089" lon="6.93524">
        <ele>573</ele>
        <time>2015-07-26T09:28:39Z</time>
      </trkpt>
      <trkpt lat="47.82087" lon="6.93518">
        <ele>573</ele>
        <time>2015-07-26T09:28:45Z</time>
      </trkpt>
      <trkpt lat="47.82089" lon="6.93504">
        <ele>573</ele>
        <time>2015-07-26T09:28:55Z</time>
      </trkpt>
      <trkpt lat="47.82088" lon="6.93495">
        <ele>573</ele>
        <time>2015-07-26T09:29:00Z</time>
      </trkpt>
      <trkpt lat="47.82089" lon="6.93488">
        <ele>573</ele>
        <time>2015-07-26T09:29:03Z</time>
      </trkpt>
      <trkpt lat="47.82091" lon="6.93482">
        <ele>573</ele>
        <time>2015-07-26T09:29:10Z</time>
      </trkpt>
      <trkpt lat="47.82094" lon="6.93477">
        <ele>570</ele>
        <time>2015-07-26T09:29:19Z</time>
      </trkpt>
      <trkpt lat="47.82097" lon="6.93471">
        <ele>568.1</ele>
        <time>2015-07-26T09:29:26Z</time>
      </trkpt>
      <trkpt lat="47.821" lon="6.93451">
        <ele>565.3</ele>
        <time>2015-07-26T09:29:38Z</time>
      </trkpt>
      <trkpt lat="47.821" lon="6.93436">
        <ele>561.8</ele>
        <time>2015-07-26T09:29:45Z</time>
      </trkpt>
      <trkpt lat="47.82098" lon="6.9343">
        <ele>561</ele>
        <time>2015-07-26T09:29:49Z</time>
      </trkpt>
      <trkpt lat="47.82089" lon="6.93424">
        <ele>560.5</ele>
        <time>2015-07-26T09:29:57Z</time>
      </trkpt>
      <trkpt lat="47.8208" lon="6.93422">
        <ele>559.1</ele>
        <time>2015-07-26T09:30:07Z</time>
      </trkpt>
      <trkpt lat="47.8208" lon="6.93413">
        <ele>559</ele>
        <time>2015-07-26T09:30:11Z</time>
      </trkpt>
      <trkpt lat="47.82082" lon="6.93407">
        <ele>559</ele>
        <time>2015-07-26T09:30:14Z</time>
      </trkpt>
      <trkpt lat="47.82093" lon="6.93403">
        <ele>556.4</ele>
        <time>2015-07-26T09:30:35Z</time>
      </trkpt>
      <trkpt lat="47.82099" lon="6.93394">
        <ele>554.3</ele>
        <time>2015-07-26T09:30:44Z</time>
      </trkpt>
      <trkpt lat="47.82106" lon="6.93385">
        <ele>552.1</ele>
        <time>2015-07-26T09:30:51Z</time>
      </trkpt>
      <trkpt lat="47.82112" lon="6.93371">
        <ele>552</ele>
        <time>2015-07-26T09:30:58Z</time>
      </trkpt>
      <trkpt lat="47.82119" lon="6.93352">
        <ele>552</ele>
        <time>2015-07-26T09:31:07Z</time>
      </trkpt>
      <trkpt lat="47.82124" lon="6.9334">
        <ele>552</ele>
        <time>2015-07-26T09:31:15Z</time>
      </trkpt>
      <trkpt lat="47.82129" lon="6.93328">
        <ele>552</ele>
        <time>2015-07-26T09:31:23Z</time>
      </trkpt>
      <trkpt lat="47.82134" lon="6.93316">
        <ele>552</ele>
        <time>2015-07-26T09:31:31Z</time>
      </trkpt>
      <trkpt lat="47.8214" lon="6.93315">
        <ele>552.5</ele>
        <time>2015-07-26T09:31:36Z</time>
      </trkpt>
      <trkpt lat="47.82143" lon="6.93308">
        <ele>552.5</ele>
        <time>2015-07-26T09:31:40Z</time>
      </trkpt>
      <trkpt lat="47.82148" lon="6.93295">
        <ele>553</ele>
        <time>2015-07-26T09:31:47Z</time>
      </trkpt>
      <trkpt lat="47.82154" lon="6.93277">
        <ele>553</ele>
        <time>2015-07-26T09:31:56Z</time>
      </trkpt>
      <trkpt lat="47.82155" lon="6.93269">
        <ele>554</ele>
        <time>2015-07-26T09:31:59Z</time>
      </trkpt>
      <trkpt lat="47.8216" lon="6.93257">
        <ele>554</ele>
        <time>2015-07-26T09:32:08Z</time>
      </trkpt>
      <trkpt lat="47.82165" lon="6.93254">
        <ele>554</ele>
        <time>2015-07-26T09:32:15Z</time>
      </trkpt>
      <trkpt lat="47.82167" lon="6.93248">
        <ele>554</ele>
        <time>2015-07-26T09:32:19Z</time>
      </trkpt>
      <trkpt lat="47.82171" lon="6.93244">
        <ele>554</ele>
        <time>2015-07-26T09:32:23Z</time>
      </trkpt>
      <trkpt lat="47.82172" lon="6.93237">
        <ele>555</ele>
        <time>2015-07-26T09:32:27Z</time>
      </trkpt>
      <trkpt lat="47.82172" lon="6.9323">
        <ele>555</ele>
        <time>2015-07-26T09:32:30Z</time>
      </trkpt>
      <trkpt lat="47.82173" lon="6.93222">
        <ele>554</ele>
        <time>2015-07-26T09:32:34Z</time>
      </trkpt>
      <trkpt lat="47.82177" lon="6.93216">
        <ele>554</ele>
        <time>2015-07-26T09:32:37Z</time>
      </trkpt>
      <trkpt lat="47.82181" lon="6.93211">
        <ele>555</ele>
        <time>2015-07-26T09:32:40Z</time>
      </trkpt>
      <trkpt lat="47.82181" lon="6.93197">
        <ele>555</ele>
        <time>2015-07-26T09:32:49Z</time>
      </trkpt>
      <trkpt lat="47.82182" lon="6.93176">
        <ele>554.1</ele>
        <time>2015-07-26T09:32:56Z</time>
      </trkpt>
      <trkpt lat="47.82187" lon="6.93164">
        <ele>554</ele>
        <time>2015-07-26T09:33:00Z</time>
      </trkpt>
      <trkpt lat="47.8219" lon="6.93159">
        <ele>554</ele>
        <time>2015-07-26T09:33:07Z</time>
      </trkpt>
      <trkpt lat="47.82189" lon="6.93153">
        <ele>554</ele>
        <time>2015-07-26T09:33:13Z</time>
      </trkpt>
      <trkpt lat="47.8219" lon="6.93145">
        <ele>554</ele>
        <time>2015-07-26T09:33:17Z</time>
      </trkpt>
      <trkpt lat="47.82195" lon="6.93125">
        <ele>555</ele>
        <time>2015-07-26T09:33:29Z</time>
      </trkpt>
      <trkpt lat="47.82192" lon="6.93105">
        <ele>556</ele>
        <time>2015-07-26T09:33:41Z</time>
      </trkpt>
      <trkpt lat="47.82191" lon="6.93098">
        <ele>556</ele>
        <time>2015-07-26T09:33:44Z</time>
      </trkpt>
      <trkpt lat="47.82189" lon="6.93077">
        <ele>558.7</ele>
        <time>2015-07-26T09:33:57Z</time>
      </trkpt>
      <trkpt lat="47.82187" lon="6.93069">
        <ele>559</ele>
        <time>2015-07-26T09:34:01Z</time>
      </trkpt>
      <trkpt lat="47.82185" lon="6.93049">
        <ele>559</ele>
        <time>2015-07-26T09:34:11Z</time>
      </trkpt>
      <trkpt lat="47.82181" lon="6.93027">
        <ele>561</ele>
        <time>2015-07-26T09:34:22Z</time>
      </trkpt>
      <trkpt lat="47.82189" lon="6.93011">
        <ele>562.9</ele>
        <time>2015-07-26T09:34:33Z</time>
      </trkpt>
      <trkpt lat="47.82193" lon="6.93005">
        <ele>562.4</ele>
        <time>2015-07-26T09:34:38Z</time>
      </trkpt>
      <trkpt lat="47.82198" lon="6.92997">
        <ele>562</ele>
        <time>2015-07-26T09:34:44Z</time>
      </trkpt>
      <trkpt lat="47.82203" lon="6.92985">
        <ele>562.5</ele>
        <time>2015-07-26T09:34:52Z</time>
      </trkpt>
      <trkpt lat="47.82202" lon="6.92971">
        <ele>563</ele>
        <time>2015-07-26T09:35:02Z</time>
      </trkpt>
      <trkpt lat="47.82205" lon="6.92965">
        <ele>563</ele>
        <time>2015-07-26T09:35:08Z</time>
      </trkpt>
      <trkpt lat="47.82205" lon="6.92951">
        <ele>563.9</ele>
        <time>2015-07-26T09:35:16Z</time>
      </trkpt>
      <trkpt lat="47.82203" lon="6.92936">
        <ele>564.9</ele>
        <time>2015-07-26T09:35:23Z</time>
      </trkpt>
      <trkpt lat="47.82202" lon="6.92914">
        <ele>565</ele>
        <time>2015-07-26T09:35:33Z</time>
      </trkpt>
      <trkpt lat="47.82204" lon="6.92907">
        <ele>565.9</ele>
        <time>2015-07-26T09:35:37Z</time>
      </trkpt>
      <trkpt lat="47.82207" lon="6.92901">
        <ele>566</ele>
        <time>2015-07-26T09:35:41Z</time>
      </trkpt>
      <trkpt lat="47.82211" lon="6.92898">
        <ele>566</ele>
        <time>2015-07-26T09:35:44Z</time>
      </trkpt>
      <trkpt lat="47.82216" lon="6.92895">
        <ele>566</ele>
        <time>2015-07-26T09:35:48Z</time>
      </trkpt>
      <trkpt lat="47.82218" lon="6.92887">
        <ele>566.9</ele>
        <time>2015-07-26T09:35:53Z</time>
      </trkpt>
      <trkpt lat="47.8222" lon="6.92879">
        <ele>567</ele>
        <time>2015-07-26T09:35:57Z</time>
      </trkpt>
      <trkpt lat="47.82221" lon="6.9287">
        <ele>567</ele>
        <time>2015-07-26T09:36:02Z</time>
      </trkpt>
      <trkpt lat="47.82224" lon="6.92849">
        <ele>567</ele>
        <time>2015-07-26T09:36:16Z</time>
      </trkpt>
      <trkpt lat="47.82224" lon="6.92838">
        <ele>569</ele>
        <time>2015-07-26T09:36:25Z</time>
      </trkpt>
      <trkpt lat="47.82223" lon="6.92831">
        <ele>569</ele>
        <time>2015-07-26T09:36:29Z</time>
      </trkpt>
      <trkpt lat="47.82224" lon="6.92824">
        <ele>569.7</ele>
        <time>2015-07-26T09:36:34Z</time>
      </trkpt>
      <trkpt lat="47.82225" lon="6.92811">
        <ele>574</ele>
        <time>2015-07-26T09:36:46Z</time>
      </trkpt>
      <trkpt lat="47.82225" lon="6.92803">
        <ele>574</ele>
        <time>2015-07-26T09:36:50Z</time>
      </trkpt>
      <trkpt lat="47.82225" lon="6.92796">
        <ele>574</ele>
        <time>2015-07-26T09:36:55Z</time>
      </trkpt>
      <trkpt lat="47.82224" lon="6.92789">
        <ele>574</ele>
        <time>2015-07-26T09:36:59Z</time>
      </trkpt>
      <trkpt lat="47.82225" lon="6.92782">
        <ele>574</ele>
        <time>2015-07-26T09:37:04Z</time>
      </trkpt>
      <trkpt lat="47.82223" lon="6.92762">
        <ele>574</ele>
        <time>2015-07-26T09:37:17Z</time>
      </trkpt>
      <trkpt lat="47.82227" lon="6.92755">
        <ele>573</ele>
        <time>2015-07-26T09:37:27Z</time>
      </trkpt>
      <trkpt lat="47.82228" lon="6.92747">
        <ele>573</ele>
        <time>2015-07-26T09:37:31Z</time>
      </trkpt>
      <trkpt lat="47.82233" lon="6.92741">
        <ele>571.1</ele>
        <time>2015-07-26T09:37:36Z</time>
      </trkpt>
      <trkpt lat="47.82231" lon="6.92726">
        <ele>571</ele>
        <time>2015-07-26T09:37:43Z</time>
      </trkpt>
      <trkpt lat="47.82231" lon="6.92718">
        <ele>571</ele>
        <time>2015-07-26T09:37:46Z</time>
      </trkpt>
      <trkpt lat="47.82234" lon="6.92705">
        <ele>571</ele>
        <time>2015-07-26T09:37:53Z</time>
      </trkpt>
      <trkpt lat="47.82236" lon="6.92696">
        <ele>571</ele>
        <time>2015-07-26T09:37:58Z</time>
      </trkpt>
      <trkpt lat="47.82237" lon="6.92688">
        <ele>571.5</ele>
        <time>2015-07-26T09:38:02Z</time>
      </trkpt>
      <trkpt lat="47.82243" lon="6.92686">
        <ele>573</ele>
        <time>2015-07-26T09:38:14Z</time>
      </trkpt>
      <trkpt lat="47.82243" lon="6.92678">
        <ele>573.7</ele>
        <time>2015-07-26T09:38:19Z</time>
      </trkpt>
      <trkpt lat="47.82247" lon="6.92673">
        <ele>573.9</ele>
        <time>2015-07-26T09:38:23Z</time>
      </trkpt>
      <trkpt lat="47.82254" lon="6.92671">
        <ele>575</ele>
        <time>2015-07-26T09:38:29Z</time>
      </trkpt>
      <trkpt lat="47.82254" lon="6.92663">
        <ele>575</ele>
        <time>2015-07-26T09:38:32Z</time>
      </trkpt>
      <trkpt lat="47.82253" lon="6.92657">
        <ele>575</ele>
        <time>2015-07-26T09:38:36Z</time>
      </trkpt>
      <trkpt lat="47.8225" lon="6.92651">
        <ele>575</ele>
        <time>2015-07-26T09:38:46Z</time>
      </trkpt>
      <trkpt lat="47.8225" lon="6.92644">
        <ele>575</ele>
        <time>2015-07-26T09:38:52Z</time>
      </trkpt>
      <trkpt lat="47.82252" lon="6.92638">
        <ele>574.2</ele>
        <time>2015-07-26T09:38:57Z</time>
      </trkpt>
      <trkpt lat="47.82252" lon="6.92632">
        <ele>573.3</ele>
        <time>2015-07-26T09:39:04Z</time>
      </trkpt>
      <trkpt lat="47.82256" lon="6.92626">
        <ele>573.1</ele>
        <time>2015-07-26T09:39:10Z</time>
      </trkpt>
      <trkpt lat="47.82263" lon="6.92618">
        <ele>573</ele>
        <time>2015-07-26T09:39:16Z</time>
      </trkpt>
      <trkpt lat="47.82264" lon="6.9261">
        <ele>573</ele>
        <time>2015-07-26T09:39:21Z</time>
      </trkpt>
      <trkpt lat="47.82266" lon="6.92603">
        <ele>573</ele>
        <time>2015-07-26T09:39:31Z</time>
      </trkpt>
      <trkpt lat="47.8227" lon="6.92602">
        <ele>573</ele>
        <time>2015-07-26T09:39:36Z</time>
      </trkpt>
      <trkpt lat="47.82275" lon="6.92604">
        <ele>573.9</ele>
        <time>2015-07-26T09:39:39Z</time>
      </trkpt>
      <trkpt lat="47.82283" lon="6.92608">
        <ele>575</ele>
        <time>2015-07-26T09:39:49Z</time>
      </trkpt>
      <trkpt lat="47.82292" lon="6.92614">
        <ele>576.7</ele>
        <time>2015-07-26T09:39:58Z</time>
      </trkpt>
      <trkpt lat="47.82288" lon="6.92622">
        <ele>585.2</ele>
        <time>2015-07-26T09:40:12Z</time>
      </trkpt>
      <trkpt lat="47.82292" lon="6.92635">
        <ele>587</ele>
        <time>2015-07-26T09:40:27Z</time>
      </trkpt>
      <trkpt lat="47.82295" lon="6.92652">
        <ele>587.9</ele>
        <time>2015-07-26T09:40:37Z</time>
      </trkpt>
      <trkpt lat="47.82296" lon="6.92668">
        <ele>588</ele>
        <time>2015-07-26T09:40:47Z</time>
      </trkpt>
      <trkpt lat="47.823" lon="6.92679">
        <ele>589</ele>
        <time>2015-07-26T09:40:58Z</time>
      </trkpt>
      <trkpt lat="47.82302" lon="6.9269">
        <ele>589</ele>
        <time>2015-07-26T09:41:07Z</time>
      </trkpt>
      <trkpt lat="47.82303" lon="6.92697">
        <ele>589</ele>
        <time>2015-07-26T09:41:11Z</time>
      </trkpt>
      <trkpt lat="47.82302" lon="6.92704">
        <ele>589</ele>
        <time>2015-07-26T09:41:15Z</time>
      </trkpt>
      <trkpt lat="47.82305" lon="6.9271">
        <ele>589</ele>
        <time>2015-07-26T09:41:19Z</time>
      </trkpt>
      <trkpt lat="47.82306" lon="6.92723">
        <ele>589</ele>
        <time>2015-07-26T09:41:26Z</time>
      </trkpt>
      <trkpt lat="47.82305" lon="6.92738">
        <ele>586.5</ele>
        <time>2015-07-26T09:41:35Z</time>
      </trkpt>
      <trkpt lat="47.82306" lon="6.92745">
        <ele>584.1</ele>
        <time>2015-07-26T09:41:39Z</time>
      </trkpt>
      <trkpt lat="47.82308" lon="6.92752">
        <ele>584</ele>
        <time>2015-07-26T09:41:45Z</time>
      </trkpt>
      <trkpt lat="47.82307" lon="6.92758">
        <ele>583.5</ele>
        <time>2015-07-26T09:41:50Z</time>
      </trkpt>
      <trkpt lat="47.82314" lon="6.92769">
        <ele>583</ele>
        <time>2015-07-26T09:41:59Z</time>
      </trkpt>
      <trkpt lat="47.82322" lon="6.92777">
        <ele>582.1</ele>
        <time>2015-07-26T09:42:06Z</time>
      </trkpt>
      <trkpt lat="47.82322" lon="6.92784">
        <ele>580.1</ele>
        <time>2015-07-26T09:42:10Z</time>
      </trkpt>
      <trkpt lat="47.82322" lon="6.92794">
        <ele>580</ele>
        <time>2015-07-26T09:42:14Z</time>
      </trkpt>
      <trkpt lat="47.82321" lon="6.92804">
        <ele>580</ele>
        <time>2015-07-26T09:42:18Z</time>
      </trkpt>
      <trkpt lat="47.82321" lon="6.92812">
        <ele>579.1</ele>
        <time>2015-07-26T09:42:22Z</time>
      </trkpt>
      <trkpt lat="47.82322" lon="6.92821">
        <ele>579.1</ele>
        <time>2015-07-26T09:42:26Z</time>
      </trkpt>
      <trkpt lat="47.82325" lon="6.92836">
        <ele>571</ele>
        <time>2015-07-26T09:42:35Z</time>
      </trkpt>
      <trkpt lat="47.82325" lon="6.92842">
        <ele>570</ele>
        <time>2015-07-26T09:42:40Z</time>
      </trkpt>
      <trkpt lat="47.82332" lon="6.92857">
        <ele>570</ele>
        <time>2015-07-26T09:42:53Z</time>
      </trkpt>
      <trkpt lat="47.82334" lon="6.92871">
        <ele>569</ele>
        <time>2015-07-26T09:43:02Z</time>
      </trkpt>
      <trkpt lat="47.82334" lon="6.92879">
        <ele>568.3</ele>
        <time>2015-07-26T09:43:07Z</time>
      </trkpt>
      <trkpt lat="47.82333" lon="6.92888">
        <ele>568</ele>
        <time>2015-07-26T09:43:12Z</time>
      </trkpt>
      <trkpt lat="47.82333" lon="6.92895">
        <ele>568</ele>
        <time>2015-07-26T09:43:18Z</time>
      </trkpt>
      <trkpt lat="47.82335" lon="6.92909">
        <ele>568</ele>
        <time>2015-07-26T09:43:27Z</time>
      </trkpt>
      <trkpt lat="47.82334" lon="6.92916">
        <ele>568</ele>
        <time>2015-07-26T09:43:31Z</time>
      </trkpt>
      <trkpt lat="47.82333" lon="6.92936">
        <ele>569.9</ele>
        <time>2015-07-26T09:43:46Z</time>
      </trkpt>
      <trkpt lat="47.82331" lon="6.92944">
        <ele>571.7</ele>
        <time>2015-07-26T09:43:52Z</time>
      </trkpt>
      <trkpt lat="47.82329" lon="6.92958">
        <ele>576.1</ele>
        <time>2015-07-26T09:44:01Z</time>
      </trkpt>
      <trkpt lat="47.82328" lon="6.92966">
        <ele>577</ele>
        <time>2015-07-26T09:44:08Z</time>
      </trkpt>
      <trkpt lat="47.82328" lon="6.92974">
        <ele>578.9</ele>
        <time>2015-07-26T09:44:14Z</time>
      </trkpt>
      <trkpt lat="47.82334" lon="6.92976">
        <ele>590</ele>
        <time>2015-07-26T09:44:28Z</time>
      </trkpt>
      <trkpt lat="47.82338" lon="6.92988">
        <ele>590</ele>
        <time>2015-07-26T09:44:38Z</time>
      </trkpt>
      <trkpt lat="47.82342" lon="6.92995">
        <ele>592.5</ele>
        <time>2015-07-26T09:44:43Z</time>
      </trkpt>
      <trkpt lat="47.82341" lon="6.93003">
        <ele>592.5</ele>
        <time>2015-07-26T09:44:47Z</time>
      </trkpt>
      <trkpt lat="47.82342" lon="6.9301">
        <ele>593</ele>
        <time>2015-07-26T09:44:52Z</time>
      </trkpt>
      <trkpt lat="47.82344" lon="6.93016">
        <ele>593.9</ele>
        <time>2015-07-26T09:44:56Z</time>
      </trkpt>
      <trkpt lat="47.82341" lon="6.93026">
        <ele>594.7</ele>
        <time>2015-07-26T09:45:02Z</time>
      </trkpt>
      <trkpt lat="47.82338" lon="6.9304">
        <ele>595.7</ele>
        <time>2015-07-26T09:45:08Z</time>
      </trkpt>
      <trkpt lat="47.82337" lon="6.93047">
        <ele>598.2</ele>
        <time>2015-07-26T09:45:11Z</time>
      </trkpt>
      <trkpt lat="47.82338" lon="6.93057">
        <ele>601.8</ele>
        <time>2015-07-26T09:45:17Z</time>
      </trkpt>
      <trkpt lat="47.8234" lon="6.93065">
        <ele>605.7</ele>
        <time>2015-07-26T09:45:30Z</time>
      </trkpt>
      <trkpt lat="47.82347" lon="6.93074">
        <ele>606</ele>
        <time>2015-07-26T09:45:36Z</time>
      </trkpt>
      <trkpt lat="47.82352" lon="6.93085">
        <ele>606.9</ele>
        <time>2015-07-26T09:45:43Z</time>
      </trkpt>
      <trkpt lat="47.82356" lon="6.93091">
        <ele>607</ele>
        <time>2015-07-26T09:45:48Z</time>
      </trkpt>
      <trkpt lat="47.8236" lon="6.93104">
        <ele>607</ele>
        <time>2015-07-26T09:45:58Z</time>
      </trkpt>
      <trkpt lat="47.82359" lon="6.93111">
        <ele>607</ele>
        <time>2015-07-26T09:46:02Z</time>
      </trkpt>
      <trkpt lat="47.82366" lon="6.9312">
        <ele>606.1</ele>
        <time>2015-07-26T09:46:12Z</time>
      </trkpt>
      <trkpt lat="47.82366" lon="6.93134">
        <ele>604</ele>
        <time>2015-07-26T09:46:23Z</time>
      </trkpt>
      <trkpt lat="47.82371" lon="6.93146">
        <ele>601.1</ele>
        <time>2015-07-26T09:46:33Z</time>
      </trkpt>
      <trkpt lat="47.82378" lon="6.93155">
        <ele>601</ele>
        <time>2015-07-26T09:46:41Z</time>
      </trkpt>
      <trkpt lat="47.82381" lon="6.93161">
        <ele>601</ele>
        <time>2015-07-26T09:46:47Z</time>
      </trkpt>
      <trkpt lat="47.8238" lon="6.93174">
        <ele>601</ele>
        <time>2015-07-26T09:46:55Z</time>
      </trkpt>
      <trkpt lat="47.82379" lon="6.93182">
        <ele>601</ele>
        <time>2015-07-26T09:46:59Z</time>
      </trkpt>
      <trkpt lat="47.82383" lon="6.93185">
        <ele>601</ele>
        <time>2015-07-26T09:47:05Z</time>
      </trkpt>
      <trkpt lat="47.82386" lon="6.93191">
        <ele>602</ele>
        <time>2015-07-26T09:47:09Z</time>
      </trkpt>
      <trkpt lat="47.82392" lon="6.93197">
        <ele>602.9</ele>
        <time>2015-07-26T09:47:14Z</time>
      </trkpt>
      <trkpt lat="47.82394" lon="6.93204">
        <ele>605.9</ele>
        <time>2015-07-26T09:47:22Z</time>
      </trkpt>
      <trkpt lat="47.82406" lon="6.93212">
        <ele>606</ele>
        <time>2015-07-26T09:47:33Z</time>
      </trkpt>
      <trkpt lat="47.82415" lon="6.93216">
        <ele>607</ele>
        <time>2015-07-26T09:47:45Z</time>
      </trkpt>
      <trkpt lat="47.82419" lon="6.9322">
        <ele>608</ele>
        <time>2015-07-26T09:47:48Z</time>
      </trkpt>
      <trkpt lat="47.82423" lon="6.93225">
        <ele>608</ele>
        <time>2015-07-26T09:47:53Z</time>
      </trkpt>
      <trkpt lat="47.82433" lon="6.93234">
        <ele>610.5</ele>
        <time>2015-07-26T09:48:05Z</time>
      </trkpt>
      <trkpt lat="47.82438" lon="6.93238">
        <ele>613.4</ele>
        <time>2015-07-26T09:48:11Z</time>
      </trkpt>
      <trkpt lat="47.82434" lon="6.93246">
        <ele>615.9</ele>
        <time>2015-07-26T09:48:25Z</time>
      </trkpt>
      <trkpt lat="47.82437" lon="6.93251">
        <ele>616</ele>
        <time>2015-07-26T09:48:31Z</time>
      </trkpt>
      <trkpt lat="47.82442" lon="6.93253">
        <ele>616.8</ele>
        <time>2015-07-26T09:48:37Z</time>
      </trkpt>
      <trkpt lat="47.82447" lon="6.93254">
        <ele>622.3</ele>
        <time>2015-07-26T09:48:44Z</time>
      </trkpt>
      <trkpt lat="47.8245" lon="6.9326">
        <ele>624.3</ele>
        <time>2015-07-26T09:48:48Z</time>
      </trkpt>
      <trkpt lat="47.82454" lon="6.93266">
        <ele>626.7</ele>
        <time>2015-07-26T09:48:52Z</time>
      </trkpt>
      <trkpt lat="47.82451" lon="6.93274">
        <ele>630.9</ele>
        <time>2015-07-26T09:49:00Z</time>
      </trkpt>
      <trkpt lat="47.82447" lon="6.9328">
        <ele>631.9</ele>
        <time>2015-07-26T09:49:03Z</time>
      </trkpt>
      <trkpt lat="47.82444" lon="6.93286">
        <ele>631.9</ele>
        <time>2015-07-26T09:49:06Z</time>
      </trkpt>
      <trkpt lat="47.82441" lon="6.93294">
        <ele>633.5</ele>
        <time>2015-07-26T09:49:18Z</time>
      </trkpt>
      <trkpt lat="47.82436" lon="6.93295">
        <ele>638.8</ele>
        <time>2015-07-26T09:49:24Z</time>
      </trkpt>
      <trkpt lat="47.82428" lon="6.93293">
        <ele>641</ele>
        <time>2015-07-26T09:49:34Z</time>
      </trkpt>
      <trkpt lat="47.82421" lon="6.93292">
        <ele>642</ele>
        <time>2015-07-26T09:49:42Z</time>
      </trkpt>
      <trkpt lat="47.82418" lon="6.93297">
        <ele>642</ele>
        <time>2015-07-26T09:49:48Z</time>
      </trkpt>
      <trkpt lat="47.82409" lon="6.933">
        <ele>642</ele>
        <time>2015-07-26T09:49:59Z</time>
      </trkpt>
      <trkpt lat="47.82398" lon="6.93308">
        <ele>642</ele>
        <time>2015-07-26T09:50:10Z</time>
      </trkpt>
      <trkpt lat="47.82394" lon="6.93313">
        <ele>642</ele>
        <time>2015-07-26T09:50:16Z</time>
      </trkpt>
      <trkpt lat="47.8239" lon="6.93318">
        <ele>639.2</ele>
        <time>2015-07-26T09:50:24Z</time>
      </trkpt>
      <trkpt lat="47.82386" lon="6.9332">
        <ele>639</ele>
        <time>2015-07-26T09:50:27Z</time>
      </trkpt>
      <trkpt lat="47.82382" lon="6.93327">
        <ele>639</ele>
        <time>2015-07-26T09:50:33Z</time>
      </trkpt>
      <trkpt lat="47.82377" lon="6.9333">
        <ele>639</ele>
        <time>2015-07-26T09:50:39Z</time>
      </trkpt>
      <trkpt lat="47.82371" lon="6.9334">
        <ele>638</ele>
        <time>2015-07-26T09:50:52Z</time>
      </trkpt>
      <trkpt lat="47.82367" lon="6.93346">
        <ele>638</ele>
        <time>2015-07-26T09:50:58Z</time>
      </trkpt>
      <trkpt lat="47.8236" lon="6.93356">
        <ele>636.3</ele>
        <time>2015-07-26T09:51:07Z</time>
      </trkpt>
      <trkpt lat="47.82358" lon="6.93363">
        <ele>634.1</ele>
        <time>2015-07-26T09:51:18Z</time>
      </trkpt>
      <trkpt lat="47.82352" lon="6.93373">
        <ele>631.6</ele>
        <time>2015-07-26T09:51:28Z</time>
      </trkpt>
      <trkpt lat="47.82348" lon="6.93379">
        <ele>631</ele>
        <time>2015-07-26T09:51:33Z</time>
      </trkpt>
      <trkpt lat="47.82341" lon="6.93389">
        <ele>630.1</ele>
        <time>2015-07-26T09:51:41Z</time>
      </trkpt>
      <trkpt lat="47.82338" lon="6.93405">
        <ele>629</ele>
        <time>2015-07-26T09:51:52Z</time>
      </trkpt>
      <trkpt lat="47.82325" lon="6.93412">
        <ele>628.1</ele>
        <time>2015-07-26T09:52:02Z</time>
      </trkpt>
      <trkpt lat="47.82317" lon="6.93418">
        <ele>628</ele>
        <time>2015-07-26T09:52:09Z</time>
      </trkpt>
      <trkpt lat="47.82311" lon="6.9343">
        <ele>628</ele>
        <time>2015-07-26T09:52:19Z</time>
      </trkpt>
      <trkpt lat="47.82305" lon="6.93448">
        <ele>627.1</ele>
        <time>2015-07-26T09:52:31Z</time>
      </trkpt>
      <trkpt lat="47.82303" lon="6.93456">
        <ele>627</ele>
        <time>2015-07-26T09:52:35Z</time>
      </trkpt>
      <trkpt lat="47.823" lon="6.93462">
        <ele>627.9</ele>
        <time>2015-07-26T09:52:39Z</time>
      </trkpt>
      <trkpt lat="47.82295" lon="6.93467">
        <ele>627.9</ele>
        <time>2015-07-26T09:52:43Z</time>
      </trkpt>
      <trkpt lat="47.82286" lon="6.93474">
        <ele>629</ele>
        <time>2015-07-26T09:52:52Z</time>
      </trkpt>
      <trkpt lat="47.82282" lon="6.93486">
        <ele>629</ele>
        <time>2015-07-26T09:53:00Z</time>
      </trkpt>
      <trkpt lat="47.82278" lon="6.9349">
        <ele>629</ele>
        <time>2015-07-26T09:53:04Z</time>
      </trkpt>
      <trkpt lat="47.82274" lon="6.93496">
        <ele>629.5</ele>
        <time>2015-07-26T09:53:09Z</time>
      </trkpt>
      <trkpt lat="47.82271" lon="6.935">
        <ele>630.5</ele>
        <time>2015-07-26T09:53:14Z</time>
      </trkpt>
      <trkpt lat="47.82266" lon="6.93513">
        <ele>632.8</ele>
        <time>2015-07-26T09:53:22Z</time>
      </trkpt>
      <trkpt lat="47.82262" lon="6.93517">
        <ele>634</ele>
        <time>2015-07-26T09:53:27Z</time>
      </trkpt>
      <trkpt lat="47.82259" lon="6.93523">
        <ele>634.9</ele>
        <time>2015-07-26T09:53:32Z</time>
      </trkpt>
      <trkpt lat="47.82259" lon="6.9353">
        <ele>635</ele>
        <time>2015-07-26T09:53:37Z</time>
      </trkpt>
      <trkpt lat="47.82258" lon="6.93539">
        <ele>635</ele>
        <time>2015-07-26T09:53:41Z</time>
      </trkpt>
      <trkpt lat="47.82256" lon="6.93546">
        <ele>635.8</ele>
        <time>2015-07-26T09:53:45Z</time>
      </trkpt>
      <trkpt lat="47.82252" lon="6.9356">
        <ele>636</ele>
        <time>2015-07-26T09:53:54Z</time>
      </trkpt>
      <trkpt lat="47.82251" lon="6.93574">
        <ele>636.9</ele>
        <time>2015-07-26T09:54:01Z</time>
      </trkpt>
      <trkpt lat="47.82248" lon="6.93589">
        <ele>638</ele>
        <time>2015-07-26T09:54:11Z</time>
      </trkpt>
      <trkpt lat="47.82241" lon="6.936">
        <ele>638.9</ele>
        <time>2015-07-26T09:54:18Z</time>
      </trkpt>
      <trkpt lat="47.82238" lon="6.93606">
        <ele>639</ele>
        <time>2015-07-26T09:54:21Z</time>
      </trkpt>
      <trkpt lat="47.82234" lon="6.9361">
        <ele>639</ele>
        <time>2015-07-26T09:54:27Z</time>
      </trkpt>
      <trkpt lat="47.82229" lon="6.93622">
        <ele>639</ele>
        <time>2015-07-26T09:54:36Z</time>
      </trkpt>
      <trkpt lat="47.82227" lon="6.93636">
        <ele>640</ele>
        <time>2015-07-26T09:54:45Z</time>
      </trkpt>
      <trkpt lat="47.82224" lon="6.93651">
        <ele>641</ele>
        <time>2015-07-26T09:54:54Z</time>
      </trkpt>
      <trkpt lat="47.82222" lon="6.93658">
        <ele>641</ele>
        <time>2015-07-26T09:54:57Z</time>
      </trkpt>
      <trkpt lat="47.82218" lon="6.93667">
        <ele>641</ele>
        <time>2015-07-26T09:55:01Z</time>
      </trkpt>
      <trkpt lat="47.82217" lon="6.93674">
        <ele>640.2</ele>
        <time>2015-07-26T09:55:07Z</time>
      </trkpt>
      <trkpt lat="47.82219" lon="6.93687">
        <ele>639.3</ele>
        <time>2015-07-26T09:55:14Z</time>
      </trkpt>
      <trkpt lat="47.82222" lon="6.93694">
        <ele>639</ele>
        <time>2015-07-26T09:55:20Z</time>
      </trkpt>
      <trkpt lat="47.82225" lon="6.93708">
        <ele>639</ele>
        <time>2015-07-26T09:55:30Z</time>
      </trkpt>
      <trkpt lat="47.82225" lon="6.93724">
        <ele>638</ele>
        <time>2015-07-26T09:55:38Z</time>
      </trkpt>
      <trkpt lat="47.82226" lon="6.93744">
        <ele>636.1</ele>
        <time>2015-07-26T09:55:50Z</time>
      </trkpt>
      <trkpt lat="47.82229" lon="6.93757">
        <ele>634.3</ele>
        <time>2015-07-26T09:55:59Z</time>
      </trkpt>
      <trkpt lat="47.82229" lon="6.93765">
        <ele>633.5</ele>
        <time>2015-07-26T09:56:06Z</time>
      </trkpt>
      <trkpt lat="47.82233" lon="6.93777">
        <ele>632.1</ele>
        <time>2015-07-26T09:56:14Z</time>
      </trkpt>
      <trkpt lat="47.82237" lon="6.93792">
        <ele>631.3</ele>
        <time>2015-07-26T09:56:21Z</time>
      </trkpt>
      <trkpt lat="47.82234" lon="6.9381">
        <ele>629.1</ele>
        <time>2015-07-26T09:56:29Z</time>
      </trkpt>
      <trkpt lat="47.82231" lon="6.93823">
        <ele>629</ele>
        <time>2015-07-26T09:56:34Z</time>
      </trkpt>
      <trkpt lat="47.82235" lon="6.93836">
        <ele>629</ele>
        <time>2015-07-26T09:56:42Z</time>
      </trkpt>
      <trkpt lat="47.82234" lon="6.93849">
        <ele>629</ele>
        <time>2015-07-26T09:56:50Z</time>
      </trkpt>
      <trkpt lat="47.82233" lon="6.93856">
        <ele>629</ele>
        <time>2015-07-26T09:56:56Z</time>
      </trkpt>
      <trkpt lat="47.82234" lon="6.93863">
        <ele>633.5</ele>
        <time>2015-07-26T09:57:02Z</time>
      </trkpt>
      <trkpt lat="47.82233" lon="6.93871">
        <ele>634.9</ele>
        <time>2015-07-26T09:57:07Z</time>
      </trkpt>
      <trkpt lat="47.8223" lon="6.93877">
        <ele>635</ele>
        <time>2015-07-26T09:57:10Z</time>
      </trkpt>
      <trkpt lat="47.82232" lon="6.93884">
        <ele>635.9</ele>
        <time>2015-07-26T09:57:15Z</time>
      </trkpt>
      <trkpt lat="47.82234" lon="6.9389">
        <ele>636</ele>
        <time>2015-07-26T09:57:19Z</time>
      </trkpt>
      <trkpt lat="47.82237" lon="6.93896">
        <ele>636</ele>
        <time>2015-07-26T09:57:25Z</time>
      </trkpt>
      <trkpt lat="47.82241" lon="6.939">
        <ele>636</ele>
        <time>2015-07-26T09:57:30Z</time>
      </trkpt>
      <trkpt lat="47.82242" lon="6.93909">
        <ele>636</ele>
        <time>2015-07-26T09:57:35Z</time>
      </trkpt>
      <trkpt lat="47.8224" lon="6.93916">
        <ele>636</ele>
        <time>2015-07-26T09:57:39Z</time>
      </trkpt>
      <trkpt lat="47.82239" lon="6.93924">
        <ele>636</ele>
        <time>2015-07-26T09:57:42Z</time>
      </trkpt>
      <trkpt lat="47.8224" lon="6.93931">
        <ele>636.8</ele>
        <time>2015-07-26T09:57:46Z</time>
      </trkpt>
      <trkpt lat="47.82243" lon="6.93935">
        <ele>637</ele>
        <time>2015-07-26T09:57:53Z</time>
      </trkpt>
      <trkpt lat="47.82242" lon="6.93942">
        <ele>637</ele>
        <time>2015-07-26T09:57:56Z</time>
      </trkpt>
      <trkpt lat="47.82241" lon="6.93951">
        <ele>637</ele>
        <time>2015-07-26T09:58:00Z</time>
      </trkpt>
      <trkpt lat="47.82246" lon="6.93963">
        <ele>637.9</ele>
        <time>2015-07-26T09:58:06Z</time>
      </trkpt>
      <trkpt lat="47.82248" lon="6.9397">
        <ele>638</ele>
        <time>2015-07-26T09:58:10Z</time>
      </trkpt>
      <trkpt lat="47.82251" lon="6.93983">
        <ele>638</ele>
        <time>2015-07-26T09:58:18Z</time>
      </trkpt>
      <trkpt lat="47.82252" lon="6.9399">
        <ele>639</ele>
        <time>2015-07-26T09:58:22Z</time>
      </trkpt>
      <trkpt lat="47.82255" lon="6.94004">
        <ele>639.9</ele>
        <time>2015-07-26T09:58:29Z</time>
      </trkpt>
      <trkpt lat="47.8226" lon="6.94006">
        <ele>640</ele>
        <time>2015-07-26T09:58:33Z</time>
      </trkpt>
      <trkpt lat="47.82265" lon="6.94011">
        <ele>640</ele>
        <time>2015-07-26T09:58:37Z</time>
      </trkpt>
      <trkpt lat="47.82269" lon="6.94017">
        <ele>640</ele>
        <time>2015-07-26T09:58:40Z</time>
      </trkpt>
      <trkpt lat="47.82272" lon="6.94023">
        <ele>641</ele>
        <time>2015-07-26T09:58:44Z</time>
      </trkpt>
      <trkpt lat="47.82275" lon="6.94037">
        <ele>641</ele>
        <time>2015-07-26T09:58:52Z</time>
      </trkpt>
      <trkpt lat="47.82274" lon="6.9405">
        <ele>642.9</ele>
        <time>2015-07-26T09:58:59Z</time>
      </trkpt>
      <trkpt lat="47.82276" lon="6.94061">
        <ele>644</ele>
        <time>2015-07-26T09:59:09Z</time>
      </trkpt>
      <trkpt lat="47.82278" lon="6.94069">
        <ele>645.7</ele>
        <time>2015-07-26T09:59:17Z</time>
      </trkpt>
      <trkpt lat="47.82282" lon="6.94073">
        <ele>651.9</ele>
        <time>2015-07-26T09:59:20Z</time>
      </trkpt>
      <trkpt lat="47.82284" lon="6.94079">
        <ele>652.9</ele>
        <time>2015-07-26T09:59:23Z</time>
      </trkpt>
      <trkpt lat="47.8229" lon="6.9409">
        <ele>654</ele>
        <time>2015-07-26T09:59:29Z</time>
      </trkpt>
      <trkpt lat="47.82286" lon="6.94094">
        <ele>655</ele>
        <time>2015-07-26T09:59:36Z</time>
      </trkpt>
      <trkpt lat="47.8229" lon="6.941">
        <ele>655</ele>
        <time>2015-07-26T09:59:39Z</time>
      </trkpt>
      <trkpt lat="47.82295" lon="6.94111">
        <ele>655</ele>
        <time>2015-07-26T09:59:44Z</time>
      </trkpt>
      <trkpt lat="47.82302" lon="6.94119">
        <ele>656.9</ele>
        <time>2015-07-26T09:59:51Z</time>
      </trkpt>
      <trkpt lat="47.82315" lon="6.94132">
        <ele>659</ele>
        <time>2015-07-26T10:00:01Z</time>
      </trkpt>
      <trkpt lat="47.82325" lon="6.94132">
        <ele>661.4</ele>
        <time>2015-07-26T10:00:09Z</time>
      </trkpt>
      <trkpt lat="47.82334" lon="6.94136">
        <ele>664</ele>
        <time>2015-07-26T10:00:18Z</time>
      </trkpt>
      <trkpt lat="47.82345" lon="6.94134">
        <ele>664.9</ele>
        <time>2015-07-26T10:00:27Z</time>
      </trkpt>
      <trkpt lat="47.8235" lon="6.94132">
        <ele>665</ele>
        <time>2015-07-26T10:00:32Z</time>
      </trkpt>
      <trkpt lat="47.82355" lon="6.94133">
        <ele>665</ele>
        <time>2015-07-26T10:00:38Z</time>
      </trkpt>
      <trkpt lat="47.82365" lon="6.94135">
        <ele>666</ele>
        <time>2015-07-26T10:00:45Z</time>
      </trkpt>
      <trkpt lat="47.82375" lon="6.94137">
        <ele>666</ele>
        <time>2015-07-26T10:00:56Z</time>
      </trkpt>
      <trkpt lat="47.82379" lon="6.94136">
        <ele>666</ele>
        <time>2015-07-26T10:00:59Z</time>
      </trkpt>
      <trkpt lat="47.82394" lon="6.94135">
        <ele>666</ele>
        <time>2015-07-26T10:01:07Z</time>
      </trkpt>
      <trkpt lat="47.82403" lon="6.94135">
        <ele>666</ele>
        <time>2015-07-26T10:01:14Z</time>
      </trkpt>
      <trkpt lat="47.82405" lon="6.94129">
        <ele>666</ele>
        <time>2015-07-26T10:01:19Z</time>
      </trkpt>
      <trkpt lat="47.82408" lon="6.94123">
        <ele>664.5</ele>
        <time>2015-07-26T10:01:25Z</time>
      </trkpt>
      <trkpt lat="47.82422" lon="6.94125">
        <ele>664</ele>
        <time>2015-07-26T10:01:33Z</time>
      </trkpt>
      <trkpt lat="47.82427" lon="6.94129">
        <ele>663.1</ele>
        <time>2015-07-26T10:01:37Z</time>
      </trkpt>
      <trkpt lat="47.82429" lon="6.94136">
        <ele>663</ele>
        <time>2015-07-26T10:01:41Z</time>
      </trkpt>
      <trkpt lat="47.82434" lon="6.94156">
        <ele>662</ele>
        <time>2015-07-26T10:01:52Z</time>
      </trkpt>
      <trkpt lat="47.82438" lon="6.94169">
        <ele>662</ele>
        <time>2015-07-26T10:01:58Z</time>
      </trkpt>
      <trkpt lat="47.82439" lon="6.94177">
        <ele>662</ele>
        <time>2015-07-26T10:02:06Z</time>
      </trkpt>
      <trkpt lat="47.82442" lon="6.9419">
        <ele>662</ele>
        <time>2015-07-26T10:02:14Z</time>
      </trkpt>
      <trkpt lat="47.82443" lon="6.94197">
        <ele>662</ele>
        <time>2015-07-26T10:02:17Z</time>
      </trkpt>
      <trkpt lat="47.82443" lon="6.94205">
        <ele>662</ele>
        <time>2015-07-26T10:02:20Z</time>
      </trkpt>
      <trkpt lat="47.82442" lon="6.94198">
        <ele>662</ele>
        <time>2015-07-26T10:02:33Z</time>
      </trkpt>
      <trkpt lat="47.8244" lon="6.94205">
        <ele>662</ele>
        <time>2015-07-26T10:02:39Z</time>
      </trkpt>
      <trkpt lat="47.82436" lon="6.94218">
        <ele>662</ele>
        <time>2015-07-26T10:02:43Z</time>
      </trkpt>
      <trkpt lat="47.82435" lon="6.94224">
        <ele>662</ele>
        <time>2015-07-26T10:02:46Z</time>
      </trkpt>
      <trkpt lat="47.82435" lon="6.94234">
        <ele>659.5</ele>
        <time>2015-07-26T10:02:53Z</time>
      </trkpt>
      <trkpt lat="47.82437" lon="6.9424">
        <ele>659.5</ele>
        <time>2015-07-26T10:02:57Z</time>
      </trkpt>
      <trkpt lat="47.82446" lon="6.94244">
        <ele>652</ele>
        <time>2015-07-26T10:03:17Z</time>
      </trkpt>
      <trkpt lat="47.82449" lon="6.9425">
        <ele>651.1</ele>
        <time>2015-07-26T10:03:22Z</time>
      </trkpt>
      <trkpt lat="47.82452" lon="6.94259">
        <ele>649.3</ele>
        <time>2015-07-26T10:03:28Z</time>
      </trkpt>
      <trkpt lat="47.82451" lon="6.94267">
        <ele>646.3</ele>
        <time>2015-07-26T10:03:35Z</time>
      </trkpt>
      <trkpt lat="47.82448" lon="6.94274">
        <ele>642.2</ele>
        <time>2015-07-26T10:03:39Z</time>
      </trkpt>
      <trkpt lat="47.82443" lon="6.94279">
        <ele>642.2</ele>
        <time>2015-07-26T10:03:42Z</time>
      </trkpt>
      <trkpt lat="47.82439" lon="6.94284">
        <ele>641.1</ele>
        <time>2015-07-26T10:03:45Z</time>
      </trkpt>
      <trkpt lat="47.82436" lon="6.94291">
        <ele>640.1</ele>
        <time>2015-07-26T10:03:50Z</time>
      </trkpt>
      <trkpt lat="47.82438" lon="6.94297">
        <ele>640.1</ele>
        <time>2015-07-26T10:03:54Z</time>
      </trkpt>
      <trkpt lat="47.82436" lon="6.94304">
        <ele>638</ele>
        <time>2015-07-26T10:04:07Z</time>
      </trkpt>
      <trkpt lat="47.82434" lon="6.94312">
        <ele>638</ele>
        <time>2015-07-26T10:04:12Z</time>
      </trkpt>
      <trkpt lat="47.82431" lon="6.94319">
        <ele>638</ele>
        <time>2015-07-26T10:04:18Z</time>
      </trkpt>
      <trkpt lat="47.82431" lon="6.94327">
        <ele>638</ele>
        <time>2015-07-26T10:04:27Z</time>
      </trkpt>
      <trkpt lat="47.82428" lon="6.94335">
        <ele>639.7</ele>
        <time>2015-07-26T10:04:35Z</time>
      </trkpt>
      <trkpt lat="47.82424" lon="6.94341">
        <ele>642.4</ele>
        <time>2015-07-26T10:04:41Z</time>
      </trkpt>
      <trkpt lat="47.82419" lon="6.94354">
        <ele>644.8</ele>
        <time>2015-07-26T10:04:48Z</time>
      </trkpt>
      <trkpt lat="47.82418" lon="6.94361">
        <ele>646</ele>
        <time>2015-07-26T10:04:54Z</time>
      </trkpt>
      <trkpt lat="47.82415" lon="6.94368">
        <ele>646.7</ele>
        <time>2015-07-26T10:04:58Z</time>
      </trkpt>
      <trkpt lat="47.8241" lon="6.94372">
        <ele>648</ele>
        <time>2015-07-26T10:05:04Z</time>
      </trkpt>
      <trkpt lat="47.82406" lon="6.94365">
        <ele>648.9</ele>
        <time>2015-07-26T10:05:07Z</time>
      </trkpt>
      <trkpt lat="47.82404" lon="6.94358">
        <ele>649</ele>
        <time>2015-07-26T10:05:10Z</time>
      </trkpt>
      <trkpt lat="47.82406" lon="6.94367">
        <ele>650.7</ele>
        <time>2015-07-26T10:05:17Z</time>
      </trkpt>
      <trkpt lat="47.82406" lon="6.94374">
        <ele>650.7</ele>
        <time>2015-07-26T10:05:21Z</time>
      </trkpt>
      <trkpt lat="47.82407" lon="6.94381">
        <ele>651</ele>
        <time>2015-07-26T10:05:25Z</time>
      </trkpt>
      <trkpt lat="47.82415" lon="6.94397">
        <ele>652</ele>
        <time>2015-07-26T10:05:33Z</time>
      </trkpt>
      <trkpt lat="47.82418" lon="6.9441">
        <ele>652.7</ele>
        <time>2015-07-26T10:05:38Z</time>
      </trkpt>
      <trkpt lat="47.82421" lon="6.94424">
        <ele>653</ele>
        <time>2015-07-26T10:05:46Z</time>
      </trkpt>
      <trkpt lat="47.82419" lon="6.94431">
        <ele>653</ele>
        <time>2015-07-26T10:05:51Z</time>
      </trkpt>
      <trkpt lat="47.82419" lon="6.94438">
        <ele>653</ele>
        <time>2015-07-26T10:05:54Z</time>
      </trkpt>
      <trkpt lat="47.82419" lon="6.94446">
        <ele>653</ele>
        <time>2015-07-26T10:05:58Z</time>
      </trkpt>
      <trkpt lat="47.82416" lon="6.94453">
        <ele>653</ele>
        <time>2015-07-26T10:06:02Z</time>
      </trkpt>
      <trkpt lat="47.82414" lon="6.9446">
        <ele>653</ele>
        <time>2015-07-26T10:06:07Z</time>
      </trkpt>
      <trkpt lat="47.82414" lon="6.94472">
        <ele>640.6</ele>
        <time>2015-07-26T10:06:16Z</time>
      </trkpt>
      <trkpt lat="47.82415" lon="6.94479">
        <ele>637.1</ele>
        <time>2015-07-26T10:06:21Z</time>
      </trkpt>
      <trkpt lat="47.82418" lon="6.94486">
        <ele>637.1</ele>
        <time>2015-07-26T10:06:25Z</time>
      </trkpt>
      <trkpt lat="47.82421" lon="6.94492">
        <ele>636</ele>
        <time>2015-07-26T10:06:28Z</time>
      </trkpt>
      <trkpt lat="47.82422" lon="6.945">
        <ele>636</ele>
        <time>2015-07-26T10:06:31Z</time>
      </trkpt>
      <trkpt lat="47.82424" lon="6.94506">
        <ele>636</ele>
        <time>2015-07-26T10:06:37Z</time>
      </trkpt>
      <trkpt lat="47.82429" lon="6.94508">
        <ele>636</ele>
        <time>2015-07-26T10:06:40Z</time>
      </trkpt>
      <trkpt lat="47.82432" lon="6.94513">
        <ele>635</ele>
        <time>2015-07-26T10:06:46Z</time>
      </trkpt>
      <trkpt lat="47.82433" lon="6.9452">
        <ele>634.3</ele>
        <time>2015-07-26T10:06:52Z</time>
      </trkpt>
      <trkpt lat="47.82438" lon="6.94523">
        <ele>633.1</ele>
        <time>2015-07-26T10:06:57Z</time>
      </trkpt>
      <trkpt lat="47.8244" lon="6.94531">
        <ele>633</ele>
        <time>2015-07-26T10:07:03Z</time>
      </trkpt>
      <trkpt lat="47.82439" lon="6.94538">
        <ele>633</ele>
        <time>2015-07-26T10:07:06Z</time>
      </trkpt>
      <trkpt lat="47.82442" lon="6.94551">
        <ele>633.9</ele>
        <time>2015-07-26T10:07:13Z</time>
      </trkpt>
      <trkpt lat="47.82439" lon="6.94558">
        <ele>635</ele>
        <time>2015-07-26T10:07:19Z</time>
      </trkpt>
      <trkpt lat="47.82442" lon="6.94566">
        <ele>635</ele>
        <time>2015-07-26T10:07:24Z</time>
      </trkpt>
      <trkpt lat="47.82443" lon="6.94573">
        <ele>633.3</ele>
        <time>2015-07-26T10:07:31Z</time>
      </trkpt>
      <trkpt lat="47.82446" lon="6.94587">
        <ele>633</ele>
        <time>2015-07-26T10:07:40Z</time>
      </trkpt>
      <trkpt lat="47.8245" lon="6.94592">
        <ele>633</ele>
        <time>2015-07-26T10:07:45Z</time>
      </trkpt>
      <trkpt lat="47.82453" lon="6.94605">
        <ele>634</ele>
        <time>2015-07-26T10:07:55Z</time>
      </trkpt>
      <trkpt lat="47.82463" lon="6.94612">
        <ele>634.9</ele>
        <time>2015-07-26T10:08:05Z</time>
      </trkpt>
      <trkpt lat="47.82467" lon="6.94615">
        <ele>635</ele>
        <time>2015-07-26T10:08:08Z</time>
      </trkpt>
      <trkpt lat="47.82476" lon="6.94622">
        <ele>634</ele>
        <time>2015-07-26T10:08:16Z</time>
      </trkpt>
      <trkpt lat="47.82481" lon="6.94625">
        <ele>634</ele>
        <time>2015-07-26T10:08:22Z</time>
      </trkpt>
      <trkpt lat="47.8249" lon="6.94632">
        <ele>634</ele>
        <time>2015-07-26T10:08:28Z</time>
      </trkpt>
      <trkpt lat="47.82494" lon="6.94644">
        <ele>633.2</ele>
        <time>2015-07-26T10:08:32Z</time>
      </trkpt>
      <trkpt lat="47.82503" lon="6.94657">
        <ele>632.3</ele>
        <time>2015-07-26T10:08:36Z</time>
      </trkpt>
      <trkpt lat="47.82506" lon="6.94672">
        <ele>627.1</ele>
        <time>2015-07-26T10:08:48Z</time>
      </trkpt>
      <trkpt lat="47.82509" lon="6.94678">
        <ele>626</ele>
        <time>2015-07-26T10:08:54Z</time>
      </trkpt>
      <trkpt lat="47.82513" lon="6.94683">
        <ele>626</ele>
        <time>2015-07-26T10:09:00Z</time>
      </trkpt>
      <trkpt lat="47.8252" lon="6.94695">
        <ele>626</ele>
        <time>2015-07-26T10:09:10Z</time>
      </trkpt>
      <trkpt lat="47.82524" lon="6.94699">
        <ele>626.5</ele>
        <time>2015-07-26T10:09:15Z</time>
      </trkpt>
      <trkpt lat="47.82538" lon="6.94701">
        <ele>627.9</ele>
        <time>2015-07-26T10:09:30Z</time>
      </trkpt>
      <trkpt lat="47.82543" lon="6.94703">
        <ele>628</ele>
        <time>2015-07-26T10:09:34Z</time>
      </trkpt>
      <trkpt lat="47.82548" lon="6.94703">
        <ele>628</ele>
        <time>2015-07-26T10:09:39Z</time>
      </trkpt>
      <trkpt lat="47.82553" lon="6.94703">
        <ele>628</ele>
        <time>2015-07-26T10:09:42Z</time>
      </trkpt>
      <trkpt lat="47.82558" lon="6.94708">
        <ele>628</ele>
        <time>2015-07-26T10:09:48Z</time>
      </trkpt>
      <trkpt lat="47.82565" lon="6.94717">
        <ele>628</ele>
        <time>2015-07-26T10:09:56Z</time>
      </trkpt>
      <trkpt lat="47.82576" lon="6.94723">
        <ele>628.9</ele>
        <time>2015-07-26T10:10:05Z</time>
      </trkpt>
      <trkpt lat="47.8258" lon="6.94732">
        <ele>629</ele>
        <time>2015-07-26T10:10:10Z</time>
      </trkpt>
      <trkpt lat="47.82591" lon="6.94746">
        <ele>629</ele>
        <time>2015-07-26T10:10:20Z</time>
      </trkpt>
      <trkpt lat="47.82594" lon="6.94751">
        <ele>629</ele>
        <time>2015-07-26T10:10:23Z</time>
      </trkpt>
      <trkpt lat="47.82595" lon="6.94757">
        <ele>630.7</ele>
        <time>2015-07-26T10:10:28Z</time>
      </trkpt>
      <trkpt lat="47.82601" lon="6.94759">
        <ele>630.7</ele>
        <time>2015-07-26T10:10:31Z</time>
      </trkpt>
      <trkpt lat="47.82606" lon="6.9476">
        <ele>631.9</ele>
        <time>2015-07-26T10:10:34Z</time>
      </trkpt>
      <trkpt lat="47.8261" lon="6.94763">
        <ele>632.7</ele>
        <time>2015-07-26T10:10:38Z</time>
      </trkpt>
      <trkpt lat="47.82614" lon="6.94765">
        <ele>633.5</ele>
        <time>2015-07-26T10:10:43Z</time>
      </trkpt>
      <trkpt lat="47.8262" lon="6.94768">
        <ele>634.9</ele>
        <time>2015-07-26T10:10:50Z</time>
      </trkpt>
      <trkpt lat="47.82625" lon="6.9477">
        <ele>635</ele>
        <time>2015-07-26T10:10:58Z</time>
      </trkpt>
      <trkpt lat="47.82624" lon="6.94763">
        <ele>635</ele>
        <time>2015-07-26T10:11:10Z</time>
      </trkpt>
      <trkpt lat="47.8262" lon="6.94758">
        <ele>636</ele>
        <time>2015-07-26T10:11:15Z</time>
      </trkpt>
      <trkpt lat="47.82612" lon="6.94751">
        <ele>636</ele>
        <time>2015-07-26T10:11:24Z</time>
      </trkpt>
      <trkpt lat="47.82607" lon="6.94745">
        <ele>636</ele>
        <time>2015-07-26T10:11:30Z</time>
      </trkpt>
      <trkpt lat="47.82604" lon="6.94751">
        <ele>636.9</ele>
        <time>2015-07-26T10:11:41Z</time>
      </trkpt>
      <trkpt lat="47.826" lon="6.94751">
        <ele>645.3</ele>
        <time>2015-07-26T10:12:09Z</time>
      </trkpt>
      <trkpt lat="47.82605" lon="6.94751">
        <ele>650</ele>
        <time>2015-07-26T10:12:44Z</time>
      </trkpt>
      <trkpt lat="47.82609" lon="6.94754">
        <ele>650</ele>
        <time>2015-07-26T10:12:49Z</time>
      </trkpt>
      <trkpt lat="47.82611" lon="6.94761">
        <ele>650</ele>
        <time>2015-07-26T10:12:51Z</time>
      </trkpt>
      <trkpt lat="47.82615" lon="6.94773">
        <ele>650</ele>
        <time>2015-07-26T10:12:56Z</time>
      </trkpt>
      <trkpt lat="47.82623" lon="6.94786">
        <ele>650</ele>
        <time>2015-07-26T10:13:02Z</time>
      </trkpt>
      <trkpt lat="47.82628" lon="6.9479">
        <ele>650</ele>
        <time>2015-07-26T10:13:05Z</time>
      </trkpt>
      <trkpt lat="47.82635" lon="6.94801">
        <ele>641.5</ele>
        <time>2015-07-26T10:13:17Z</time>
      </trkpt>
      <trkpt lat="47.82643" lon="6.94808">
        <ele>640.1</ele>
        <time>2015-07-26T10:13:24Z</time>
      </trkpt>
      <trkpt lat="47.82646" lon="6.94813">
        <ele>638.1</ele>
        <time>2015-07-26T10:13:31Z</time>
      </trkpt>
      <trkpt lat="47.82654" lon="6.9482">
        <ele>638</ele>
        <time>2015-07-26T10:13:39Z</time>
      </trkpt>
      <trkpt lat="47.82658" lon="6.94824">
        <ele>638</ele>
        <time>2015-07-26T10:13:43Z</time>
      </trkpt>
      <trkpt lat="47.82669" lon="6.94837">
        <ele>637</ele>
        <time>2015-07-26T10:13:56Z</time>
      </trkpt>
      <trkpt lat="47.82678" lon="6.94841">
        <ele>636</ele>
        <time>2015-07-26T10:14:09Z</time>
      </trkpt>
      <trkpt lat="47.82687" lon="6.94841">
        <ele>636</ele>
        <time>2015-07-26T10:14:16Z</time>
      </trkpt>
      <trkpt lat="47.82694" lon="6.94842">
        <ele>636</ele>
        <time>2015-07-26T10:14:23Z</time>
      </trkpt>
      <trkpt lat="47.82699" lon="6.94845">
        <ele>636</ele>
        <time>2015-07-26T10:14:26Z</time>
      </trkpt>
      <trkpt lat="47.82707" lon="6.9485">
        <ele>636</ele>
        <time>2015-07-26T10:14:31Z</time>
      </trkpt>
      <trkpt lat="47.82712" lon="6.94854">
        <ele>636</ele>
        <time>2015-07-26T10:14:34Z</time>
      </trkpt>
      <trkpt lat="47.82718" lon="6.94856">
        <ele>636</ele>
        <time>2015-07-26T10:14:37Z</time>
      </trkpt>
      <trkpt lat="47.82727" lon="6.9486">
        <ele>636</ele>
        <time>2015-07-26T10:14:43Z</time>
      </trkpt>
      <trkpt lat="47.82732" lon="6.9486">
        <ele>636</ele>
        <time>2015-07-26T10:14:47Z</time>
      </trkpt>
      <trkpt lat="47.82739" lon="6.9486">
        <ele>636</ele>
        <time>2015-07-26T10:14:54Z</time>
      </trkpt>
      <trkpt lat="47.82744" lon="6.94856">
        <ele>636</ele>
        <time>2015-07-26T10:14:57Z</time>
      </trkpt>
      <trkpt lat="47.82754" lon="6.94852">
        <ele>635.5</ele>
        <time>2015-07-26T10:15:05Z</time>
      </trkpt>
      <trkpt lat="47.8276" lon="6.94854">
        <ele>633.4</ele>
        <time>2015-07-26T10:15:08Z</time>
      </trkpt>
      <trkpt lat="47.82765" lon="6.94858">
        <ele>633.4</ele>
        <time>2015-07-26T10:15:10Z</time>
      </trkpt>
      <trkpt lat="47.82767" lon="6.94866">
        <ele>633</ele>
        <time>2015-07-26T10:15:12Z</time>
      </trkpt>
      <trkpt lat="47.82771" lon="6.9487">
        <ele>633</ele>
        <time>2015-07-26T10:15:17Z</time>
      </trkpt>
      <trkpt lat="47.8278" lon="6.94876">
        <ele>633</ele>
        <time>2015-07-26T10:15:27Z</time>
      </trkpt>
      <trkpt lat="47.82794" lon="6.94875">
        <ele>633</ele>
        <time>2015-07-26T10:15:38Z</time>
      </trkpt>
      <trkpt lat="47.82799" lon="6.94876">
        <ele>637.3</ele>
        <time>2015-07-26T10:15:43Z</time>
      </trkpt>
      <trkpt lat="47.82803" lon="6.9488">
        <ele>638.9</ele>
        <time>2015-07-26T10:15:50Z</time>
      </trkpt>
      <trkpt lat="47.82809" lon="6.94891">
        <ele>639.5</ele>
        <time>2015-07-26T10:15:58Z</time>
      </trkpt>
      <trkpt lat="47.82814" lon="6.94896">
        <ele>640</ele>
        <time>2015-07-26T10:16:02Z</time>
      </trkpt>
      <trkpt lat="47.82827" lon="6.94896">
        <ele>640</ele>
        <time>2015-07-26T10:16:10Z</time>
      </trkpt>
      <trkpt lat="47.82831" lon="6.94893">
        <ele>640.9</ele>
        <time>2015-07-26T10:16:14Z</time>
      </trkpt>
      <trkpt lat="47.82836" lon="6.9489">
        <ele>643.4</ele>
        <time>2015-07-26T10:16:22Z</time>
      </trkpt>
      <trkpt lat="47.82846" lon="6.94887">
        <ele>644</ele>
        <time>2015-07-26T10:16:28Z</time>
      </trkpt>
      <trkpt lat="47.82851" lon="6.94885">
        <ele>644</ele>
        <time>2015-07-26T10:16:32Z</time>
      </trkpt>
      <trkpt lat="47.82865" lon="6.94883">
        <ele>644</ele>
        <time>2015-07-26T10:16:42Z</time>
      </trkpt>
      <trkpt lat="47.82869" lon="6.94878">
        <ele>644</ele>
        <time>2015-07-26T10:16:49Z</time>
      </trkpt>
      <trkpt lat="47.82874" lon="6.94874">
        <ele>643.2</ele>
        <time>2015-07-26T10:16:53Z</time>
      </trkpt>
      <trkpt lat="47.82878" lon="6.94868">
        <ele>642.1</ele>
        <time>2015-07-26T10:16:58Z</time>
      </trkpt>
      <trkpt lat="47.82886" lon="6.9486">
        <ele>641.3</ele>
        <time>2015-07-26T10:17:05Z</time>
      </trkpt>
      <trkpt lat="47.82891" lon="6.94848">
        <ele>640.1</ele>
        <time>2015-07-26T10:17:10Z</time>
      </trkpt>
      <trkpt lat="47.82899" lon="6.94836">
        <ele>637.5</ele>
        <time>2015-07-26T10:17:18Z</time>
      </trkpt>
      <trkpt lat="47.82905" lon="6.94822">
        <ele>637</ele>
        <time>2015-07-26T10:17:28Z</time>
      </trkpt>
      <trkpt lat="47.8291" lon="6.94818">
        <ele>637</ele>
        <time>2015-07-26T10:17:32Z</time>
      </trkpt>
      <trkpt lat="47.82914" lon="6.94814">
        <ele>637</ele>
        <time>2015-07-26T10:17:35Z</time>
      </trkpt>
      <trkpt lat="47.82917" lon="6.94808">
        <ele>637</ele>
        <time>2015-07-26T10:17:39Z</time>
      </trkpt>
      <trkpt lat="47.82916" lon="6.94801">
        <ele>637</ele>
        <time>2015-07-26T10:17:44Z</time>
      </trkpt>
      <trkpt lat="47.8292" lon="6.94795">
        <ele>637</ele>
        <time>2015-07-26T10:17:50Z</time>
      </trkpt>
      <trkpt lat="47.82922" lon="6.94789">
        <ele>637</ele>
        <time>2015-07-26T10:17:56Z</time>
      </trkpt>
      <trkpt lat="47.82924" lon="6.94782">
        <ele>637</ele>
        <time>2015-07-26T10:18:01Z</time>
      </trkpt>
      <trkpt lat="47.82927" lon="6.94776">
        <ele>636.2</ele>
        <time>2015-07-26T10:18:05Z</time>
      </trkpt>
      <trkpt lat="47.82934" lon="6.94766">
        <ele>631.1</ele>
        <time>2015-07-26T10:18:12Z</time>
      </trkpt>
      <trkpt lat="47.8294" lon="6.94753">
        <ele>625.6</ele>
        <time>2015-07-26T10:18:20Z</time>
      </trkpt>
      <trkpt lat="47.82941" lon="6.94747">
        <ele>624.4</ele>
        <time>2015-07-26T10:18:24Z</time>
      </trkpt>
      <trkpt lat="47.82946" lon="6.94741">
        <ele>624</ele>
        <time>2015-07-26T10:18:28Z</time>
      </trkpt>
      <trkpt lat="47.82951" lon="6.94738">
        <ele>624</ele>
        <time>2015-07-26T10:18:31Z</time>
      </trkpt>
      <trkpt lat="47.82956" lon="6.94735">
        <ele>624</ele>
        <time>2015-07-26T10:18:35Z</time>
      </trkpt>
      <trkpt lat="47.82964" lon="6.94726">
        <ele>624</ele>
        <time>2015-07-26T10:18:42Z</time>
      </trkpt>
      <trkpt lat="47.82968" lon="6.94723">
        <ele>624</ele>
        <time>2015-07-26T10:18:45Z</time>
      </trkpt>
      <trkpt lat="47.82971" lon="6.94716">
        <ele>624</ele>
        <time>2015-07-26T10:18:50Z</time>
      </trkpt>
      <trkpt lat="47.82973" lon="6.94709">
        <ele>624</ele>
        <time>2015-07-26T10:18:53Z</time>
      </trkpt>
      <trkpt lat="47.82976" lon="6.94704">
        <ele>624.9</ele>
        <time>2015-07-26T10:18:56Z</time>
      </trkpt>
      <trkpt lat="47.82979" lon="6.94698">
        <ele>625.7</ele>
        <time>2015-07-26T10:19:00Z</time>
      </trkpt>
      <trkpt lat="47.82984" lon="6.94697">
        <ele>631.9</ele>
        <time>2015-07-26T10:19:09Z</time>
      </trkpt>
      <trkpt lat="47.82988" lon="6.94695">
        <ele>631.9</ele>
        <time>2015-07-26T10:19:12Z</time>
      </trkpt>
      <trkpt lat="47.82997" lon="6.94688">
        <ele>634.4</ele>
        <time>2015-07-26T10:19:18Z</time>
      </trkpt>
      <trkpt lat="47.83005" lon="6.94681">
        <ele>635</ele>
        <time>2015-07-26T10:19:23Z</time>
      </trkpt>
      <trkpt lat="47.83017" lon="6.9467">
        <ele>635.5</ele>
        <time>2015-07-26T10:19:33Z</time>
      </trkpt>
      <trkpt lat="47.83026" lon="6.94668">
        <ele>636.5</ele>
        <time>2015-07-26T10:19:41Z</time>
      </trkpt>
      <trkpt lat="47.83031" lon="6.94657">
        <ele>636.9</ele>
        <time>2015-07-26T10:19:47Z</time>
      </trkpt>
      <trkpt lat="47.83035" lon="6.94652">
        <ele>638.5</ele>
        <time>2015-07-26T10:19:53Z</time>
      </trkpt>
      <trkpt lat="47.83042" lon="6.94651">
        <ele>638.5</ele>
        <time>2015-07-26T10:20:00Z</time>
      </trkpt>
      <trkpt lat="47.83054" lon="6.94642">
        <ele>638</ele>
        <time>2015-07-26T10:20:12Z</time>
      </trkpt>
      <trkpt lat="47.83059" lon="6.94636">
        <ele>638</ele>
        <time>2015-07-26T10:20:20Z</time>
      </trkpt>
      <trkpt lat="47.83065" lon="6.94625">
        <ele>636.3</ele>
        <time>2015-07-26T10:20:31Z</time>
      </trkpt>
      <trkpt lat="47.83069" lon="6.94623">
        <ele>636.1</ele>
        <time>2015-07-26T10:20:36Z</time>
      </trkpt>
      <trkpt lat="47.83078" lon="6.94621">
        <ele>635</ele>
        <time>2015-07-26T10:20:43Z</time>
      </trkpt>
      <trkpt lat="47.83086" lon="6.9462">
        <ele>635</ele>
        <time>2015-07-26T10:20:48Z</time>
      </trkpt>
      <trkpt lat="47.8309" lon="6.94618">
        <ele>635</ele>
        <time>2015-07-26T10:20:52Z</time>
      </trkpt>
      <trkpt lat="47.83095" lon="6.94616">
        <ele>634</ele>
        <time>2015-07-26T10:20:57Z</time>
      </trkpt>
      <trkpt lat="47.831" lon="6.94613">
        <ele>634</ele>
        <time>2015-07-26T10:21:02Z</time>
      </trkpt>
      <trkpt lat="47.83109" lon="6.94607">
        <ele>634</ele>
        <time>2015-07-26T10:21:08Z</time>
      </trkpt>
      <trkpt lat="47.83113" lon="6.94601">
        <ele>633.5</ele>
        <time>2015-07-26T10:21:14Z</time>
      </trkpt>
      <trkpt lat="47.83116" lon="6.94596">
        <ele>633</ele>
        <time>2015-07-26T10:21:19Z</time>
      </trkpt>
      <trkpt lat="47.83124" lon="6.94591">
        <ele>630.5</ele>
        <time>2015-07-26T10:21:27Z</time>
      </trkpt>
      <trkpt lat="47.83127" lon="6.94586">
        <ele>630</ele>
        <time>2015-07-26T10:21:34Z</time>
      </trkpt>
      <trkpt lat="47.83128" lon="6.94579">
        <ele>626.1</ele>
        <time>2015-07-26T10:21:39Z</time>
      </trkpt>
      <trkpt lat="47.83132" lon="6.94575">
        <ele>626.1</ele>
        <time>2015-07-26T10:21:43Z</time>
      </trkpt>
      <trkpt lat="47.83136" lon="6.94571">
        <ele>624</ele>
        <time>2015-07-26T10:21:47Z</time>
      </trkpt>
      <trkpt lat="47.83143" lon="6.94567">
        <ele>624</ele>
        <time>2015-07-26T10:21:52Z</time>
      </trkpt>
      <trkpt lat="47.83148" lon="6.94566">
        <ele>622.3</ele>
        <time>2015-07-26T10:21:56Z</time>
      </trkpt>
      <trkpt lat="47.83158" lon="6.94569">
        <ele>616.6</ele>
        <time>2015-07-26T10:22:03Z</time>
      </trkpt>
      <trkpt lat="47.83171" lon="6.94563">
        <ele>611.2</ele>
        <time>2015-07-26T10:22:13Z</time>
      </trkpt>
      <trkpt lat="47.83173" lon="6.94556">
        <ele>610</ele>
        <time>2015-07-26T10:22:19Z</time>
      </trkpt>
      <trkpt lat="47.83177" lon="6.94551">
        <ele>609.3</ele>
        <time>2015-07-26T10:22:23Z</time>
      </trkpt>
      <trkpt lat="47.83181" lon="6.94546">
        <ele>609</ele>
        <time>2015-07-26T10:22:27Z</time>
      </trkpt>
      <trkpt lat="47.83184" lon="6.9454">
        <ele>609</ele>
        <time>2015-07-26T10:22:30Z</time>
      </trkpt>
      <trkpt lat="47.83188" lon="6.94535">
        <ele>608.1</ele>
        <time>2015-07-26T10:22:34Z</time>
      </trkpt>
      <trkpt lat="47.83194" lon="6.94519">
        <ele>602.7</ele>
        <time>2015-07-26T10:22:44Z</time>
      </trkpt>
      <trkpt lat="47.83196" lon="6.94506">
        <ele>601.1</ele>
        <time>2015-07-26T10:22:50Z</time>
      </trkpt>
      <trkpt lat="47.832" lon="6.94501">
        <ele>601</ele>
        <time>2015-07-26T10:22:55Z</time>
      </trkpt>
      <trkpt lat="47.83204" lon="6.94498">
        <ele>601</ele>
        <time>2015-07-26T10:23:00Z</time>
      </trkpt>
      <trkpt lat="47.83209" lon="6.94492">
        <ele>601</ele>
        <time>2015-07-26T10:23:05Z</time>
      </trkpt>
      <trkpt lat="47.83213" lon="6.94487">
        <ele>601</ele>
        <time>2015-07-26T10:23:09Z</time>
      </trkpt>
      <trkpt lat="47.83218" lon="6.94483">
        <ele>601</ele>
        <time>2015-07-26T10:23:15Z</time>
      </trkpt>
      <trkpt lat="47.83223" lon="6.94476">
        <ele>601.9</ele>
        <time>2015-07-26T10:23:22Z</time>
      </trkpt>
      <trkpt lat="47.83226" lon="6.94472">
        <ele>604.6</ele>
        <time>2015-07-26T10:23:27Z</time>
      </trkpt>
      <trkpt lat="47.83231" lon="6.94469">
        <ele>607.7</ele>
        <time>2015-07-26T10:23:31Z</time>
      </trkpt>
      <trkpt lat="47.83234" lon="6.94464">
        <ele>607.8</ele>
        <time>2015-07-26T10:23:36Z</time>
      </trkpt>
      <trkpt lat="47.83238" lon="6.94461">
        <ele>608.9</ele>
        <time>2015-07-26T10:23:41Z</time>
      </trkpt>
      <trkpt lat="47.83242" lon="6.94459">
        <ele>610</ele>
        <time>2015-07-26T10:23:47Z</time>
      </trkpt>
      <trkpt lat="47.83256" lon="6.94453">
        <ele>613.7</ele>
        <time>2015-07-26T10:24:03Z</time>
      </trkpt>
      <trkpt lat="47.8326" lon="6.9445">
        <ele>614</ele>
        <time>2015-07-26T10:24:08Z</time>
      </trkpt>
      <trkpt lat="47.8327" lon="6.94448">
        <ele>615.9</ele>
        <time>2015-07-26T10:24:22Z</time>
      </trkpt>
      <trkpt lat="47.83274" lon="6.94444">
        <ele>623.8</ele>
        <time>2015-07-26T10:24:27Z</time>
      </trkpt>
      <trkpt lat="47.83279" lon="6.94441">
        <ele>624</ele>
        <time>2015-07-26T10:24:31Z</time>
      </trkpt>
      <trkpt lat="47.83285" lon="6.94431">
        <ele>625</ele>
        <time>2015-07-26T10:24:37Z</time>
      </trkpt>
      <trkpt lat="47.8329" lon="6.94427">
        <ele>625</ele>
        <time>2015-07-26T10:24:42Z</time>
      </trkpt>
      <trkpt lat="47.83296" lon="6.94425">
        <ele>625</ele>
        <time>2015-07-26T10:24:46Z</time>
      </trkpt>
      <trkpt lat="47.83301" lon="6.94424">
        <ele>625</ele>
        <time>2015-07-26T10:24:49Z</time>
      </trkpt>
      <trkpt lat="47.83306" lon="6.94422">
        <ele>625</ele>
        <time>2015-07-26T10:24:53Z</time>
      </trkpt>
      <trkpt lat="47.83311" lon="6.94419">
        <ele>625</ele>
        <time>2015-07-26T10:24:57Z</time>
      </trkpt>
      <trkpt lat="47.83325" lon="6.94411">
        <ele>626</ele>
        <time>2015-07-26T10:25:08Z</time>
      </trkpt>
      <trkpt lat="47.8333" lon="6.9441">
        <ele>626</ele>
        <time>2015-07-26T10:25:12Z</time>
      </trkpt>
      <trkpt lat="47.83335" lon="6.94406">
        <ele>626</ele>
        <time>2015-07-26T10:25:21Z</time>
      </trkpt>
      <trkpt lat="47.83338" lon="6.94402">
        <ele>626</ele>
        <time>2015-07-26T10:25:24Z</time>
      </trkpt>
      <trkpt lat="47.83342" lon="6.94399">
        <ele>626</ele>
        <time>2015-07-26T10:25:27Z</time>
      </trkpt>
      <trkpt lat="47.83347" lon="6.94396">
        <ele>627.5</ele>
        <time>2015-07-26T10:25:31Z</time>
      </trkpt>
      <trkpt lat="47.83359" lon="6.94383">
        <ele>630.8</ele>
        <time>2015-07-26T10:25:43Z</time>
      </trkpt>
      <trkpt lat="47.83367" lon="6.94374">
        <ele>632</ele>
        <time>2015-07-26T10:25:50Z</time>
      </trkpt>
      <trkpt lat="47.83374" lon="6.94363">
        <ele>633</ele>
        <time>2015-07-26T10:25:57Z</time>
      </trkpt>
      <trkpt lat="47.83378" lon="6.94359">
        <ele>633</ele>
        <time>2015-07-26T10:26:00Z</time>
      </trkpt>
      <trkpt lat="47.83381" lon="6.94353">
        <ele>633</ele>
        <time>2015-07-26T10:26:03Z</time>
      </trkpt>
      <trkpt lat="47.83384" lon="6.94345">
        <ele>633</ele>
        <time>2015-07-26T10:26:07Z</time>
      </trkpt>
      <trkpt lat="47.83388" lon="6.94336">
        <ele>633</ele>
        <time>2015-07-26T10:26:11Z</time>
      </trkpt>
      <trkpt lat="47.83391" lon="6.94331">
        <ele>633</ele>
        <time>2015-07-26T10:26:15Z</time>
      </trkpt>
      <trkpt lat="47.834" lon="6.94328">
        <ele>633</ele>
        <time>2015-07-26T10:26:20Z</time>
      </trkpt>
      <trkpt lat="47.83404" lon="6.94324">
        <ele>633</ele>
        <time>2015-07-26T10:26:24Z</time>
      </trkpt>
      <trkpt lat="47.83418" lon="6.94326">
        <ele>635</ele>
        <time>2015-07-26T10:26:38Z</time>
      </trkpt>
      <trkpt lat="47.83423" lon="6.94327">
        <ele>637.9</ele>
        <time>2015-07-26T10:26:49Z</time>
      </trkpt>
      <trkpt lat="47.83428" lon="6.94328">
        <ele>639</ele>
        <time>2015-07-26T10:27:08Z</time>
      </trkpt>
      <trkpt lat="47.83433" lon="6.9433">
        <ele>639</ele>
        <time>2015-07-26T10:27:13Z</time>
      </trkpt>
      <trkpt lat="47.83437" lon="6.94331">
        <ele>639</ele>
        <time>2015-07-26T10:27:16Z</time>
      </trkpt>
      <trkpt lat="47.83441" lon="6.94334">
        <ele>639</ele>
        <time>2015-07-26T10:27:21Z</time>
      </trkpt>
      <trkpt lat="47.83449" lon="6.94334">
        <ele>638</ele>
        <time>2015-07-26T10:27:28Z</time>
      </trkpt>
      <trkpt lat="47.83454" lon="6.94335">
        <ele>638</ele>
        <time>2015-07-26T10:27:32Z</time>
      </trkpt>
      <trkpt lat="47.83458" lon="6.94338">
        <ele>638</ele>
        <time>2015-07-26T10:27:37Z</time>
      </trkpt>
      <trkpt lat="47.83466" lon="6.94345">
        <ele>638</ele>
        <time>2015-07-26T10:27:44Z</time>
      </trkpt>
      <trkpt lat="47.83469" lon="6.9435">
        <ele>638</ele>
        <time>2015-07-26T10:27:48Z</time>
      </trkpt>
      <trkpt lat="47.83474" lon="6.94356">
        <ele>638</ele>
        <time>2015-07-26T10:27:53Z</time>
      </trkpt>
      <trkpt lat="47.83479" lon="6.9436">
        <ele>638</ele>
        <time>2015-07-26T10:28:00Z</time>
      </trkpt>
      <trkpt lat="47.83482" lon="6.94353">
        <ele>638</ele>
        <time>2015-07-26T10:28:06Z</time>
      </trkpt>
      <trkpt lat="47.83484" lon="6.94346">
        <ele>638.8</ele>
        <time>2015-07-26T10:28:10Z</time>
      </trkpt>
      <trkpt lat="47.83492" lon="6.9434">
        <ele>640</ele>
        <time>2015-07-26T10:28:19Z</time>
      </trkpt>
      <trkpt lat="47.83497" lon="6.9432">
        <ele>640</ele>
        <time>2015-07-26T10:28:27Z</time>
      </trkpt>
      <trkpt lat="47.83501" lon="6.94307">
        <ele>641</ele>
        <time>2015-07-26T10:28:34Z</time>
      </trkpt>
      <trkpt lat="47.83506" lon="6.94305">
        <ele>642.5</ele>
        <time>2015-07-26T10:28:40Z</time>
      </trkpt>
      <trkpt lat="47.83509" lon="6.943">
        <ele>643</ele>
        <time>2015-07-26T10:28:45Z</time>
      </trkpt>
      <trkpt lat="47.83514" lon="6.94293">
        <ele>645.8</ele>
        <time>2015-07-26T10:28:51Z</time>
      </trkpt>
      <trkpt lat="47.83519" lon="6.9429">
        <ele>648.8</ele>
        <time>2015-07-26T10:28:56Z</time>
      </trkpt>
      <trkpt lat="47.83521" lon="6.94284">
        <ele>650.3</ele>
        <time>2015-07-26T10:29:03Z</time>
      </trkpt>
      <trkpt lat="47.83522" lon="6.94277">
        <ele>658</ele>
        <time>2015-07-26T10:29:20Z</time>
      </trkpt>
      <trkpt lat="47.83525" lon="6.94265">
        <ele>660.2</ele>
        <time>2015-07-26T10:29:37Z</time>
      </trkpt>
      <trkpt lat="47.83528" lon="6.94272">
        <ele>661</ele>
        <time>2015-07-26T10:29:49Z</time>
      </trkpt>
      <trkpt lat="47.8353" lon="6.94278">
        <ele>659</ele>
        <time>2015-07-26T10:29:56Z</time>
      </trkpt>
      <trkpt lat="47.83535" lon="6.9428">
        <ele>661</ele>
        <time>2015-07-26T10:30:26Z</time>
      </trkpt>
      <trkpt lat="47.83535" lon="6.9428">
        <ele>651.7</ele>
        <time>2015-07-26T10:30:26Z</time>
      </trkpt>
      <trkpt lat="47.83535" lon="6.9428">
        <ele>651.7</ele>
        <time>2015-07-26T10:31:00Z</time>
      </trkpt>
      <trkpt lat="47.83527" lon="6.94288">
        <ele>662</ele>
        <time>2015-07-26T10:31:25Z</time>
      </trkpt>
      <trkpt lat="47.83527" lon="6.94295">
        <ele>661.5</ele>
        <time>2015-07-26T10:31:31Z</time>
      </trkpt>
      <trkpt lat="47.83526" lon="6.94303">
        <ele>661.5</ele>
        <time>2015-07-26T10:31:34Z</time>
      </trkpt>
      <trkpt lat="47.83525" lon="6.9431">
        <ele>661</ele>
        <time>2015-07-26T10:31:36Z</time>
      </trkpt>
      <trkpt lat="47.83525" lon="6.94319">
        <ele>661</ele>
        <time>2015-07-26T10:31:39Z</time>
      </trkpt>
      <trkpt lat="47.83528" lon="6.94334">
        <ele>658.2</ele>
        <time>2015-07-26T10:31:46Z</time>
      </trkpt>
      <trkpt lat="47.83529" lon="6.94341">
        <ele>653.3</ele>
        <time>2015-07-26T10:31:49Z</time>
      </trkpt>
      <trkpt lat="47.83529" lon="6.94348">
        <ele>653.3</ele>
        <time>2015-07-26T10:31:53Z</time>
      </trkpt>
      <trkpt lat="47.83527" lon="6.94355">
        <ele>652.1</ele>
        <time>2015-07-26T10:31:56Z</time>
      </trkpt>
      <trkpt lat="47.83524" lon="6.94361">
        <ele>652</ele>
        <time>2015-07-26T10:31:59Z</time>
      </trkpt>
      <trkpt lat="47.8352" lon="6.94366">
        <ele>652</ele>
        <time>2015-07-26T10:32:03Z</time>
      </trkpt>
      <trkpt lat="47.8352" lon="6.94373">
        <ele>652</ele>
        <time>2015-07-26T10:32:07Z</time>
      </trkpt>
      <trkpt lat="47.83516" lon="6.94389">
        <ele>652</ele>
        <time>2015-07-26T10:32:14Z</time>
      </trkpt>
      <trkpt lat="47.83513" lon="6.94394">
        <ele>652</ele>
        <time>2015-07-26T10:32:20Z</time>
      </trkpt>
      <trkpt lat="47.83511" lon="6.94401">
        <ele>652</ele>
        <time>2015-07-26T10:32:24Z</time>
      </trkpt>
      <trkpt lat="47.8351" lon="6.94407">
        <ele>652</ele>
        <time>2015-07-26T10:32:28Z</time>
      </trkpt>
      <trkpt lat="47.83507" lon="6.94415">
        <ele>652</ele>
        <time>2015-07-26T10:32:33Z</time>
      </trkpt>
      <trkpt lat="47.83499" lon="6.94424">
        <ele>652.8</ele>
        <time>2015-07-26T10:32:40Z</time>
      </trkpt>
      <trkpt lat="47.83494" lon="6.94434">
        <ele>656</ele>
        <time>2015-07-26T10:32:47Z</time>
      </trkpt>
      <trkpt lat="47.83488" lon="6.94444">
        <ele>656.9</ele>
        <time>2015-07-26T10:32:57Z</time>
      </trkpt>
      <trkpt lat="47.83485" lon="6.9445">
        <ele>657.5</ele>
        <time>2015-07-26T10:33:03Z</time>
      </trkpt>
      <trkpt lat="47.8348" lon="6.94463">
        <ele>658</ele>
        <time>2015-07-26T10:33:15Z</time>
      </trkpt>
      <trkpt lat="47.83476" lon="6.94468">
        <ele>658</ele>
        <time>2015-07-26T10:33:17Z</time>
      </trkpt>
      <trkpt lat="47.8347" lon="6.94473">
        <ele>658</ele>
        <time>2015-07-26T10:33:19Z</time>
      </trkpt>
      <trkpt lat="47.83462" lon="6.9448">
        <ele>658</ele>
        <time>2015-07-26T10:33:23Z</time>
      </trkpt>
      <trkpt lat="47.83459" lon="6.94485">
        <ele>658</ele>
        <time>2015-07-26T10:33:30Z</time>
      </trkpt>
      <trkpt lat="47.83455" lon="6.94488">
        <ele>658</ele>
        <time>2015-07-26T10:33:35Z</time>
      </trkpt>
      <trkpt lat="47.8345" lon="6.94491">
        <ele>658</ele>
        <time>2015-07-26T10:33:39Z</time>
      </trkpt>
      <trkpt lat="47.83446" lon="6.94494">
        <ele>658</ele>
        <time>2015-07-26T10:33:43Z</time>
      </trkpt>
      <trkpt lat="47.83441" lon="6.94498">
        <ele>656.3</ele>
        <time>2015-07-26T10:33:48Z</time>
      </trkpt>
      <trkpt lat="47.83436" lon="6.945">
        <ele>656</ele>
        <time>2015-07-26T10:33:53Z</time>
      </trkpt>
      <trkpt lat="47.83432" lon="6.94503">
        <ele>656</ele>
        <time>2015-07-26T10:33:58Z</time>
      </trkpt>
      <trkpt lat="47.83427" lon="6.94507">
        <ele>656</ele>
        <time>2015-07-26T10:34:02Z</time>
      </trkpt>
      <trkpt lat="47.83422" lon="6.94512">
        <ele>656</ele>
        <time>2015-07-26T10:34:07Z</time>
      </trkpt>
      <trkpt lat="47.83414" lon="6.94518">
        <ele>656</ele>
        <time>2015-07-26T10:34:13Z</time>
      </trkpt>
      <trkpt lat="47.8341" lon="6.94521">
        <ele>656</ele>
        <time>2015-07-26T10:34:19Z</time>
      </trkpt>
      <trkpt lat="47.83403" lon="6.94529">
        <ele>656</ele>
        <time>2015-07-26T10:34:27Z</time>
      </trkpt>
      <trkpt lat="47.83399" lon="6.94533">
        <ele>656</ele>
        <time>2015-07-26T10:34:31Z</time>
      </trkpt>
      <trkpt lat="47.83395" lon="6.94541">
        <ele>656</ele>
        <time>2015-07-26T10:34:37Z</time>
      </trkpt>
      <trkpt lat="47.83392" lon="6.94549">
        <ele>656</ele>
        <time>2015-07-26T10:34:41Z</time>
      </trkpt>
      <trkpt lat="47.83391" lon="6.94556">
        <ele>655.1</ele>
        <time>2015-07-26T10:34:46Z</time>
      </trkpt>
      <trkpt lat="47.83384" lon="6.94566">
        <ele>653</ele>
        <time>2015-07-26T10:34:55Z</time>
      </trkpt>
      <trkpt lat="47.83383" lon="6.94572">
        <ele>652.1</ele>
        <time>2015-07-26T10:34:59Z</time>
      </trkpt>
      <trkpt lat="47.83383" lon="6.9458">
        <ele>652.1</ele>
        <time>2015-07-26T10:35:03Z</time>
      </trkpt>
      <trkpt lat="47.83381" lon="6.94594">
        <ele>648.8</ele>
        <time>2015-07-26T10:35:11Z</time>
      </trkpt>
      <trkpt lat="47.83378" lon="6.946">
        <ele>646.5</ele>
        <time>2015-07-26T10:35:15Z</time>
      </trkpt>
      <trkpt lat="47.83372" lon="6.94616">
        <ele>643.3</ele>
        <time>2015-07-26T10:35:23Z</time>
      </trkpt>
      <trkpt lat="47.83367" lon="6.94625">
        <ele>643</ele>
        <time>2015-07-26T10:35:28Z</time>
      </trkpt>
      <trkpt lat="47.83365" lon="6.94632">
        <ele>643</ele>
        <time>2015-07-26T10:35:31Z</time>
      </trkpt>
      <trkpt lat="47.83361" lon="6.94645">
        <ele>643</ele>
        <time>2015-07-26T10:35:38Z</time>
      </trkpt>
      <trkpt lat="47.83358" lon="6.94651">
        <ele>643</ele>
        <time>2015-07-26T10:35:43Z</time>
      </trkpt>
      <trkpt lat="47.83353" lon="6.94649">
        <ele>643</ele>
        <time>2015-07-26T10:36:10Z</time>
      </trkpt>
      <trkpt lat="47.83349" lon="6.94655">
        <ele>643</ele>
        <time>2015-07-26T10:36:14Z</time>
      </trkpt>
      <trkpt lat="47.83342" lon="6.94673">
        <ele>643</ele>
        <time>2015-07-26T10:36:24Z</time>
      </trkpt>
      <trkpt lat="47.83339" lon="6.94679">
        <ele>643</ele>
        <time>2015-07-26T10:36:27Z</time>
      </trkpt>
      <trkpt lat="47.83337" lon="6.94686">
        <ele>643</ele>
        <time>2015-07-26T10:36:30Z</time>
      </trkpt>
      <trkpt lat="47.83336" lon="6.94693">
        <ele>643</ele>
        <time>2015-07-26T10:36:33Z</time>
      </trkpt>
      <trkpt lat="47.83333" lon="6.94702">
        <ele>643</ele>
        <time>2015-07-26T10:36:37Z</time>
      </trkpt>
      <trkpt lat="47.8333" lon="6.94707">
        <ele>639.8</ele>
        <time>2015-07-26T10:36:41Z</time>
      </trkpt>
      <trkpt lat="47.83327" lon="6.94713">
        <ele>639.8</ele>
        <time>2015-07-26T10:36:44Z</time>
      </trkpt>
      <trkpt lat="47.83322" lon="6.94724">
        <ele>638.1</ele>
        <time>2015-07-26T10:36:50Z</time>
      </trkpt>
      <trkpt lat="47.83322" lon="6.94732">
        <ele>637.3</ele>
        <time>2015-07-26T10:36:53Z</time>
      </trkpt>
      <trkpt lat="47.83319" lon="6.94737">
        <ele>637.3</ele>
        <time>2015-07-26T10:36:57Z</time>
      </trkpt>
      <trkpt lat="47.83314" lon="6.94738">
        <ele>637</ele>
        <time>2015-07-26T10:37:01Z</time>
      </trkpt>
      <trkpt lat="47.83306" lon="6.94736">
        <ele>637</ele>
        <time>2015-07-26T10:37:06Z</time>
      </trkpt>
      <trkpt lat="47.83292" lon="6.94735">
        <ele>637</ele>
        <time>2015-07-26T10:37:15Z</time>
      </trkpt>
      <trkpt lat="47.83282" lon="6.94738">
        <ele>637</ele>
        <time>2015-07-26T10:37:22Z</time>
      </trkpt>
      <trkpt lat="47.83278" lon="6.94741">
        <ele>637</ele>
        <time>2015-07-26T10:37:25Z</time>
      </trkpt>
      <trkpt lat="47.83273" lon="6.94744">
        <ele>637</ele>
        <time>2015-07-26T10:37:28Z</time>
      </trkpt>
      <trkpt lat="47.83268" lon="6.94745">
        <ele>637</ele>
        <time>2015-07-26T10:37:32Z</time>
      </trkpt>
      <trkpt lat="47.83258" lon="6.94744">
        <ele>636</ele>
        <time>2015-07-26T10:37:41Z</time>
      </trkpt>
      <trkpt lat="47.83248" lon="6.94747">
        <ele>635.1</ele>
        <time>2015-07-26T10:37:49Z</time>
      </trkpt>
      <trkpt lat="47.83243" lon="6.9475">
        <ele>634.3</ele>
        <time>2015-07-26T10:37:52Z</time>
      </trkpt>
      <trkpt lat="47.83239" lon="6.94751">
        <ele>634</ele>
        <time>2015-07-26T10:37:55Z</time>
      </trkpt>
      <trkpt lat="47.83234" lon="6.94751">
        <ele>633.5</ele>
        <time>2015-07-26T10:37:59Z</time>
      </trkpt>
      <trkpt lat="47.83229" lon="6.94754">
        <ele>633.1</ele>
        <time>2015-07-26T10:38:03Z</time>
      </trkpt>
      <trkpt lat="47.83224" lon="6.94752">
        <ele>633</ele>
        <time>2015-07-26T10:38:10Z</time>
      </trkpt>
      <trkpt lat="47.83219" lon="6.9475">
        <ele>632</ele>
        <time>2015-07-26T10:38:13Z</time>
      </trkpt>
      <trkpt lat="47.83214" lon="6.94751">
        <ele>632</ele>
        <time>2015-07-26T10:38:17Z</time>
      </trkpt>
      <trkpt lat="47.83209" lon="6.94752">
        <ele>632</ele>
        <time>2015-07-26T10:38:25Z</time>
      </trkpt>
      <trkpt lat="47.83204" lon="6.94751">
        <ele>630.5</ele>
        <time>2015-07-26T10:38:30Z</time>
      </trkpt>
      <trkpt lat="47.83198" lon="6.94752">
        <ele>630</ele>
        <time>2015-07-26T10:38:34Z</time>
      </trkpt>
      <trkpt lat="47.83193" lon="6.94752">
        <ele>630</ele>
        <time>2015-07-26T10:38:38Z</time>
      </trkpt>
      <trkpt lat="47.83185" lon="6.94759">
        <ele>629.3</ele>
        <time>2015-07-26T10:38:45Z</time>
      </trkpt>
      <trkpt lat="47.8318" lon="6.94761">
        <ele>628.5</ele>
        <time>2015-07-26T10:38:50Z</time>
      </trkpt>
      <trkpt lat="47.8317" lon="6.94761">
        <ele>627.5</ele>
        <time>2015-07-26T10:39:02Z</time>
      </trkpt>
      <trkpt lat="47.8316" lon="6.94762">
        <ele>625.8</ele>
        <time>2015-07-26T10:39:10Z</time>
      </trkpt>
      <trkpt lat="47.83152" lon="6.94768">
        <ele>623.1</ele>
        <time>2015-07-26T10:39:15Z</time>
      </trkpt>
      <trkpt lat="47.83146" lon="6.94773">
        <ele>623</ele>
        <time>2015-07-26T10:39:19Z</time>
      </trkpt>
      <trkpt lat="47.83137" lon="6.94779">
        <ele>622</ele>
        <time>2015-07-26T10:39:27Z</time>
      </trkpt>
      <trkpt lat="47.83128" lon="6.94784">
        <ele>619</ele>
        <time>2015-07-26T10:39:35Z</time>
      </trkpt>
      <trkpt lat="47.83124" lon="6.94789">
        <ele>618.1</ele>
        <time>2015-07-26T10:39:43Z</time>
      </trkpt>
      <trkpt lat="47.83119" lon="6.94793">
        <ele>618</ele>
        <time>2015-07-26T10:39:47Z</time>
      </trkpt>
      <trkpt lat="47.8311" lon="6.94798">
        <ele>617.2</ele>
        <time>2015-07-26T10:39:55Z</time>
      </trkpt>
      <trkpt lat="47.83105" lon="6.948">
        <ele>617</ele>
        <time>2015-07-26T10:40:00Z</time>
      </trkpt>
      <trkpt lat="47.83099" lon="6.94799">
        <ele>617</ele>
        <time>2015-07-26T10:40:05Z</time>
      </trkpt>
      <trkpt lat="47.83095" lon="6.94801">
        <ele>617</ele>
        <time>2015-07-26T10:40:09Z</time>
      </trkpt>
      <trkpt lat="47.83085" lon="6.94807">
        <ele>617</ele>
        <time>2015-07-26T10:40:19Z</time>
      </trkpt>
      <trkpt lat="47.83075" lon="6.94813">
        <ele>615.1</ele>
        <time>2015-07-26T10:40:26Z</time>
      </trkpt>
      <trkpt lat="47.8307" lon="6.94815">
        <ele>612.7</ele>
        <time>2015-07-26T10:40:30Z</time>
      </trkpt>
      <trkpt lat="47.83065" lon="6.94818">
        <ele>611.3</ele>
        <time>2015-07-26T10:40:38Z</time>
      </trkpt>
      <trkpt lat="47.83062" lon="6.94823">
        <ele>610.1</ele>
        <time>2015-07-26T10:40:52Z</time>
      </trkpt>
      <trkpt lat="47.83059" lon="6.9483">
        <ele>606.5</ele>
        <time>2015-07-26T10:40:56Z</time>
      </trkpt>
      <trkpt lat="47.83051" lon="6.94843">
        <ele>604</ele>
        <time>2015-07-26T10:41:06Z</time>
      </trkpt>
      <trkpt lat="47.83047" lon="6.94846">
        <ele>604</ele>
        <time>2015-07-26T10:41:12Z</time>
      </trkpt>
      <trkpt lat="47.83043" lon="6.94852">
        <ele>603</ele>
        <time>2015-07-26T10:41:16Z</time>
      </trkpt>
      <trkpt lat="47.83038" lon="6.94857">
        <ele>603</ele>
        <time>2015-07-26T10:41:20Z</time>
      </trkpt>
      <trkpt lat="47.83026" lon="6.9487">
        <ele>603</ele>
        <time>2015-07-26T10:41:29Z</time>
      </trkpt>
      <trkpt lat="47.83018" lon="6.94878">
        <ele>603</ele>
        <time>2015-07-26T10:41:36Z</time>
      </trkpt>
      <trkpt lat="47.83009" lon="6.94885">
        <ele>603</ele>
        <time>2015-07-26T10:41:48Z</time>
      </trkpt>
      <trkpt lat="47.82998" lon="6.949">
        <ele>603</ele>
        <time>2015-07-26T10:42:00Z</time>
      </trkpt>
      <trkpt lat="47.82994" lon="6.94906">
        <ele>603</ele>
        <time>2015-07-26T10:42:04Z</time>
      </trkpt>
      <trkpt lat="47.8299" lon="6.94911">
        <ele>603</ele>
        <time>2015-07-26T10:42:08Z</time>
      </trkpt>
      <trkpt lat="47.82987" lon="6.94916">
        <ele>603</ele>
        <time>2015-07-26T10:42:11Z</time>
      </trkpt>
      <trkpt lat="47.82981" lon="6.94926">
        <ele>603</ele>
        <time>2015-07-26T10:42:17Z</time>
      </trkpt>
      <trkpt lat="47.82975" lon="6.94937">
        <ele>603</ele>
        <time>2015-07-26T10:42:23Z</time>
      </trkpt>
      <trkpt lat="47.82969" lon="6.94943">
        <ele>603</ele>
        <time>2015-07-26T10:42:28Z</time>
      </trkpt>
      <trkpt lat="47.82966" lon="6.94948">
        <ele>603</ele>
        <time>2015-07-26T10:42:32Z</time>
      </trkpt>
      <trkpt lat="47.82956" lon="6.94963">
        <ele>603</ele>
        <time>2015-07-26T10:42:48Z</time>
      </trkpt>
      <trkpt lat="47.82953" lon="6.94968">
        <ele>601.1</ele>
        <time>2015-07-26T10:43:16Z</time>
      </trkpt>
      <trkpt lat="47.82949" lon="6.94972">
        <ele>600.1</ele>
        <time>2015-07-26T10:43:20Z</time>
      </trkpt>
      <trkpt lat="47.82945" lon="6.94977">
        <ele>600</ele>
        <time>2015-07-26T10:43:25Z</time>
      </trkpt>
      <trkpt lat="47.8294" lon="6.94983">
        <ele>600</ele>
        <time>2015-07-26T10:43:29Z</time>
      </trkpt>
      <trkpt lat="47.8293" lon="6.94998">
        <ele>600</ele>
        <time>2015-07-26T10:43:40Z</time>
      </trkpt>
      <trkpt lat="47.82923" lon="6.95007">
        <ele>600</ele>
        <time>2015-07-26T10:43:47Z</time>
      </trkpt>
      <trkpt lat="47.82914" lon="6.95022">
        <ele>597.1</ele>
        <time>2015-07-26T10:43:59Z</time>
      </trkpt>
      <trkpt lat="47.82908" lon="6.95037">
        <ele>596</ele>
        <time>2015-07-26T10:44:08Z</time>
      </trkpt>
      <trkpt lat="47.82906" lon="6.95044">
        <ele>596</ele>
        <time>2015-07-26T10:44:12Z</time>
      </trkpt>
      <trkpt lat="47.82899" lon="6.95063">
        <ele>596</ele>
        <time>2015-07-26T10:44:24Z</time>
      </trkpt>
      <trkpt lat="47.82892" lon="6.95073">
        <ele>596</ele>
        <time>2015-07-26T10:44:35Z</time>
      </trkpt>
      <trkpt lat="47.82885" lon="6.95078">
        <ele>595</ele>
        <time>2015-07-26T10:44:43Z</time>
      </trkpt>
      <trkpt lat="47.8288" lon="6.95081">
        <ele>595</ele>
        <time>2015-07-26T10:44:47Z</time>
      </trkpt>
      <trkpt lat="47.82877" lon="6.95086">
        <ele>595</ele>
        <time>2015-07-26T10:44:50Z</time>
      </trkpt>
      <trkpt lat="47.82866" lon="6.95099">
        <ele>592.3</ele>
        <time>2015-07-26T10:45:05Z</time>
      </trkpt>
      <trkpt lat="47.82861" lon="6.95103">
        <ele>591.1</ele>
        <time>2015-07-26T10:45:09Z</time>
      </trkpt>
      <trkpt lat="47.82848" lon="6.95108">
        <ele>591</ele>
        <time>2015-07-26T10:45:21Z</time>
      </trkpt>
      <trkpt lat="47.82843" lon="6.95111">
        <ele>591</ele>
        <time>2015-07-26T10:45:26Z</time>
      </trkpt>
      <trkpt lat="47.82838" lon="6.95113">
        <ele>591</ele>
        <time>2015-07-26T10:45:30Z</time>
      </trkpt>
      <trkpt lat="47.82825" lon="6.95122">
        <ele>590.5</ele>
        <time>2015-07-26T10:45:42Z</time>
      </trkpt>
      <trkpt lat="47.82818" lon="6.95127">
        <ele>589.1</ele>
        <time>2015-07-26T10:45:49Z</time>
      </trkpt>
      <trkpt lat="47.82813" lon="6.9513">
        <ele>588.1</ele>
        <time>2015-07-26T10:45:55Z</time>
      </trkpt>
      <trkpt lat="47.82807" lon="6.95137">
        <ele>587</ele>
        <time>2015-07-26T10:46:04Z</time>
      </trkpt>
      <trkpt lat="47.828" lon="6.9514">
        <ele>585</ele>
        <time>2015-07-26T10:46:10Z</time>
      </trkpt>
      <trkpt lat="47.82791" lon="6.95147">
        <ele>585</ele>
        <time>2015-07-26T10:46:18Z</time>
      </trkpt>
      <trkpt lat="47.82784" lon="6.95149">
        <ele>584.1</ele>
        <time>2015-07-26T10:46:23Z</time>
      </trkpt>
      <trkpt lat="47.8278" lon="6.9515">
        <ele>583</ele>
        <time>2015-07-26T10:46:27Z</time>
      </trkpt>
      <trkpt lat="47.82775" lon="6.95153">
        <ele>583</ele>
        <time>2015-07-26T10:46:32Z</time>
      </trkpt>
      <trkpt lat="47.82768" lon="6.95152">
        <ele>582.1</ele>
        <time>2015-07-26T10:46:38Z</time>
      </trkpt>
      <trkpt lat="47.82758" lon="6.95154">
        <ele>581.3</ele>
        <time>2015-07-26T10:46:46Z</time>
      </trkpt>
      <trkpt lat="47.82753" lon="6.95153">
        <ele>581</ele>
        <time>2015-07-26T10:46:50Z</time>
      </trkpt>
      <trkpt lat="47.82749" lon="6.95149">
        <ele>581</ele>
        <time>2015-07-26T10:46:56Z</time>
      </trkpt>
      <trkpt lat="47.82743" lon="6.95148">
        <ele>580.2</ele>
        <time>2015-07-26T10:47:00Z</time>
      </trkpt>
      <trkpt lat="47.82738" lon="6.95148">
        <ele>578.1</ele>
        <time>2015-07-26T10:47:03Z</time>
      </trkpt>
      <trkpt lat="47.82729" lon="6.95146">
        <ele>577.5</ele>
        <time>2015-07-26T10:47:10Z</time>
      </trkpt>
      <trkpt lat="47.82724" lon="6.95147">
        <ele>577</ele>
        <time>2015-07-26T10:47:13Z</time>
      </trkpt>
      <trkpt lat="47.82719" lon="6.95146">
        <ele>577</ele>
        <time>2015-07-26T10:47:17Z</time>
      </trkpt>
      <trkpt lat="47.82715" lon="6.95145">
        <ele>575.5</ele>
        <time>2015-07-26T10:47:22Z</time>
      </trkpt>
      <trkpt lat="47.82711" lon="6.95141">
        <ele>575</ele>
        <time>2015-07-26T10:47:28Z</time>
      </trkpt>
      <trkpt lat="47.82697" lon="6.95139">
        <ele>575</ele>
        <time>2015-07-26T10:47:38Z</time>
      </trkpt>
      <trkpt lat="47.82683" lon="6.9514">
        <ele>575</ele>
        <time>2015-07-26T10:47:50Z</time>
      </trkpt>
      <trkpt lat="47.82678" lon="6.95139">
        <ele>575</ele>
        <time>2015-07-26T10:47:53Z</time>
      </trkpt>
      <trkpt lat="47.82673" lon="6.95139">
        <ele>575</ele>
        <time>2015-07-26T10:47:56Z</time>
      </trkpt>
      <trkpt lat="47.82666" lon="6.95138">
        <ele>574.1</ele>
        <time>2015-07-26T10:48:01Z</time>
      </trkpt>
      <trkpt lat="47.82662" lon="6.95136">
        <ele>574</ele>
        <time>2015-07-26T10:48:06Z</time>
      </trkpt>
      <trkpt lat="47.82648" lon="6.95135">
        <ele>573.2</ele>
        <time>2015-07-26T10:48:17Z</time>
      </trkpt>
      <trkpt lat="47.82644" lon="6.95132">
        <ele>573</ele>
        <time>2015-07-26T10:48:21Z</time>
      </trkpt>
      <trkpt lat="47.82641" lon="6.95126">
        <ele>570.3</ele>
        <time>2015-07-26T10:48:28Z</time>
      </trkpt>
      <trkpt lat="47.8263" lon="6.95126">
        <ele>570</ele>
        <time>2015-07-26T10:48:38Z</time>
      </trkpt>
      <trkpt lat="47.82617" lon="6.9512">
        <ele>569</ele>
        <time>2015-07-26T10:48:47Z</time>
      </trkpt>
      <trkpt lat="47.82613" lon="6.95117">
        <ele>569</ele>
        <time>2015-07-26T10:48:51Z</time>
      </trkpt>
      <trkpt lat="47.82609" lon="6.95111">
        <ele>569</ele>
        <time>2015-07-26T10:48:55Z</time>
      </trkpt>
      <trkpt lat="47.82605" lon="6.95106">
        <ele>569</ele>
        <time>2015-07-26T10:48:59Z</time>
      </trkpt>
      <trkpt lat="47.826" lon="6.95104">
        <ele>568.1</ele>
        <time>2015-07-26T10:49:03Z</time>
      </trkpt>
      <trkpt lat="47.82592" lon="6.95093">
        <ele>568</ele>
        <time>2015-07-26T10:49:12Z</time>
      </trkpt>
      <trkpt lat="47.82589" lon="6.95088">
        <ele>567.1</ele>
        <time>2015-07-26T10:49:16Z</time>
      </trkpt>
      <trkpt lat="47.8258" lon="6.95081">
        <ele>566</ele>
        <time>2015-07-26T10:49:26Z</time>
      </trkpt>
      <trkpt lat="47.82575" lon="6.95079">
        <ele>566</ele>
        <time>2015-07-26T10:49:30Z</time>
      </trkpt>
      <trkpt lat="47.8257" lon="6.95075">
        <ele>566</ele>
        <time>2015-07-26T10:49:34Z</time>
      </trkpt>
      <trkpt lat="47.82562" lon="6.95067">
        <ele>566</ele>
        <time>2015-07-26T10:49:42Z</time>
      </trkpt>
      <trkpt lat="47.82562" lon="6.95061">
        <ele>565.1</ele>
        <time>2015-07-26T10:49:45Z</time>
      </trkpt>
      <trkpt lat="47.82564" lon="6.95053">
        <ele>563.3</ele>
        <time>2015-07-26T10:49:49Z</time>
      </trkpt>
      <trkpt lat="47.82561" lon="6.95048">
        <ele>563.1</ele>
        <time>2015-07-26T10:49:54Z</time>
      </trkpt>
      <trkpt lat="47.82554" lon="6.9504">
        <ele>563</ele>
        <time>2015-07-26T10:50:01Z</time>
      </trkpt>
      <trkpt lat="47.82549" lon="6.95039">
        <ele>566</ele>
        <time>2015-07-26T10:50:05Z</time>
      </trkpt>
      <trkpt lat="47.82549" lon="6.95039">
        <ele>565.2</ele>
        <time>2015-07-26T10:50:05Z</time>
      </trkpt>
      <trkpt lat="47.82549" lon="6.95039">
        <ele>565.2</ele>
        <time>2015-07-26T10:50:08Z</time>
      </trkpt>
    </trkseg>
  </trk>
</gpx>